Observation data for Lesley on 11/21/2019      Previous  Date       Current Mesonet Observations  Soil Data  Daily Summary Page  Observations in Plain Language
KLE1 210600Z 28008KT 14/13 A2987 RMK A01 T01430125  RH  089%=      5-min Rain = 0
KLE1 210601Z 27007KT 15/13 A2987 RMK A01 T01470128  RH  089%=      5-min Rain = 0
KLE1 210602Z 27008KT 15/13 A2987 RMK A01 T01490128  RH  087%=      5-min Rain = 0
KLE1 210603Z 25010KT 15/13 A2987 RMK A01 T01490127  RH  086%=      5-min Rain = 0
KLE1 210604Z 25011KT 15/13 A2987 RMK A01 T01500127  RH  087%=      5-min Rain = 0
KLE1 210605Z 24011KT 15/13 A2987 RMK A01 T01510129  RH  086%=      5-min Rain = 0
KLE1 210606Z 24012KT 15/13 A2987 RMK A01 T01540131  RH  086%=      5-min Rain = 0
KLE1 210607Z 24012KT 16/13 A2987 RMK A01 T01570132  RH  085%=      5-min Rain = 0
KLE1 210608Z 24011KT 16/13 A2987 RMK A01 T01590132  RH  084%=      5-min Rain = 0
KLE1 210609Z 24011KT 16/13 A2987 RMK A01 T01590131  RH  083%=      5-min Rain = 0
KLE1 210610Z 24011KT 16/13 A2987 RMK A01 T01580130  RH  084%=      5-min Rain = 0
KLE1 210611Z 25010KT 16/13 A2987 RMK A01 T01570130  RH  084%=      5-min Rain = 0
KLE1 210612Z 24010KT 16/13 A2987 RMK A01 T01560129  RH  084%=      5-min Rain = 0
KLE1 210613Z 24012KT 16/13 A2987 RMK A01 T01550129  RH  084%=      5-min Rain = 0
KLE1 210614Z 24012KT 16/13 A2987 RMK A01 T01550129  RH  085%=      5-min Rain = 0
KLE1 210615Z 24012KT 16/13 A2987 RMK A01 T01560130  RH  085%=      5-min Rain = 0
KLE1 210616Z 24013KT 16/13 A2987 RMK A01 T01570131  RH  084%=      5-min Rain = 0
KLE1 210617Z 23012KT 16/13 A2987 RMK A01 T01580131  RH  084%=      5-min Rain = 0
KLE1 210618Z 23012KT 16/13 A2988 RMK A01 T01600131  RH  083%=      5-min Rain = 0
KLE1 210619Z 24012KT 16/13 A2988 RMK A01 T01600131  RH  083%=      5-min Rain = 0
KLE1 210620Z 24010KT 16/13 A2988 RMK A01 T01610132  RH  083%=      5-min Rain = 0
KLE1 210621Z 24012KT 16/13 A2988 RMK A01 T01600131  RH  083%=      5-min Rain = 0
KLE1 210622Z 25010KT 16/13 A2988 RMK A01 T01590131  RH  083%=      5-min Rain = 0
KLE1 210623Z 26008KT 16/13 A2988 RMK A01 T01580129  RH  083%=      5-min Rain = 0
KLE1 210624Z 28005KT 16/13 A2988 RMK A01 T01560127  RH  083%=      5-min Rain = 0
KLE1 210625Z 28006KT 15/12 A2988 RMK A01 T01520123  RH  083%=      5-min Rain = 0
KLE1 210626Z 29007KT 15/12 A2988 RMK A01 T01480119  RH  083%=      5-min Rain = 0
KLE1 210627Z 29006KT 14/12 A2988 RMK A01 T01440118  RH  084%=      5-min Rain = 0
KLE1 210628Z 29006KT 14/12 A2988 RMK A01 T01410117  RH  086%=      5-min Rain = 0
KLE1 210629Z 29006KT 14/12 A2988 RMK A01 T01390116  RH  086%=      5-min Rain = 0
KLE1 210630Z 29006KT 14/12 A2988 RMK A01 T01370116  RH  087%=      5-min Rain = 0
KLE1 210631Z 29006KT 14/12 A2988 RMK A01 T01360115  RH  087%=      5-min Rain = 0
KLE1 210632Z 29006KT 14/12 A2988 RMK A01 T01350115  RH  088%=      5-min Rain = 0
KLE1 210633Z 28006KT 14/12 A2988 RMK A01 T01350115  RH  088%=      5-min Rain = 0
KLE1 210634Z 30006KT 13/12 A2988 RMK A01 T01340115  RH  088%=      5-min Rain = 0
KLE1 210635Z 31005KT 14/12 A2988 RMK A01 T01350115  RH  088%=      5-min Rain = 0
KLE1 210636Z 29005KT 14/12 A2988 RMK A01 T01350115  RH  088%=      5-min Rain = 0
KLE1 210637Z 28004KT 13/12 A2988 RMK A01 T01340115  RH  088%=      5-min Rain = 0
KLE1 210638Z 28004KT 13/12 A2988 RMK A01 T01340116  RH  089%=      5-min Rain = 0
KLE1 210639Z 26004KT 13/12 A2988 RMK A01 T01340116  RH  089%=      5-min Rain = 0
KLE1 210640Z 28003KT 13/12 A2988 RMK A01 T01340115  RH  088%=      5-min Rain = 0
KLE1 210641Z 28004KT 14/12 A2988 RMK A01 T01350116  RH  088%=      5-min Rain = 0
KLE1 210642Z 28004KT 14/12 A2988 RMK A01 T01350116  RH  088%=      5-min Rain = 0
KLE1 210643Z 29004KT 14/12 A2988 RMK A01 T01350116  RH  088%=      5-min Rain = 0
KLE1 210644Z 30005KT 14/12 A2988 RMK A01 T01350115  RH  088%=      5-min Rain = 0
KLE1 210645Z 30005KT 14/12 A2988 RMK A01 T01350115  RH  087%=      5-min Rain = 0
KLE1 210646Z 30005KT 14/11 A2988 RMK A01 T01350114  RH  087%=      5-min Rain = 0
KLE1 210647Z 30005KT 13/11 A2988 RMK A01 T01340113  RH  087%=      5-min Rain = 0
KLE1 210648Z 30006KT 13/11 A2988 RMK A01 T01320112  RH  088%=      5-min Rain = 0
KLE1 210649Z 30006KT 13/11 A2988 RMK A01 T01310112  RH  088%=      5-min Rain = 0
KLE1 210650Z 30006KT 13/11 A2988 RMK A01 T01300112  RH  089%=      5-min Rain = 0
KLE1 210651Z 29005KT 13/11 A2988 RMK A01 T01290112  RH  089%=      5-min Rain = 0
KLE1 210652Z 29005KT 13/11 A2988 RMK A01 T01290112  RH  089%=      5-min Rain = 0
KLE1 210653Z 29005KT 13/11 A2988 RMK A01 T01280113  RH  090%=      5-min Rain = 0
KLE1 210654Z 29005KT 13/11 A2988 RMK A01 T01280113  RH  090%=      5-min Rain = 0
KLE1 210655Z 29006KT 13/11 A2988 RMK A01 T01280112  RH  090%=      5-min Rain = 0
KLE1 210656Z 28006KT 13/11 A2988 RMK A01 T01290112  RH  090%=      5-min Rain = 0
KLE1 210657Z 28006KT 13/11 A2988 RMK A01 T01290112  RH  089%=      5-min Rain = 0
KLE1 210658Z 28006KT 13/11 A2988 RMK A01 T01300110  RH  088%=      5-min Rain = 0
KLE1 210659Z 27006KT 13/11 A2988 RMK A01 T01300109  RH  087%=      5-min Rain = 0
KLE1 210700Z 27006KT 13/11 A2988 RMK A01 T01300108  RH  086%=      5-min Rain = 0
KLE1 210701Z 27006KT 13/11 A2988 RMK A01 T01300106  RH  085%=      5-min Rain = 0
KLE1 210702Z 28006KT 13/11 A2988 RMK A01 T01310105  RH  084%=      5-min Rain = 0
KLE1 210703Z 28007KT 13/11 A2988 RMK A01 T01310105  RH  084%=      5-min Rain = 0
KLE1 210704Z 28007KT 13/10 A2988 RMK A01 T01300104  RH  084%=      5-min Rain = 0
KLE1 210705Z 28007KT 13/10 A2987 RMK A01 T01290104  RH  085%=      5-min Rain = 0
KLE1 210706Z 28007KT 13/10 A2987 RMK A01 T01270103  RH  085%=      5-min Rain = 0
KLE1 210707Z 28007KT 13/10 A2987 RMK A01 T01260103  RH  086%=      5-min Rain = 0
KLE1 210708Z 29006KT 13/10 A2987 RMK A01 T01250102  RH  086%=      5-min Rain = 0
KLE1 210709Z 29007KT 12/10 A2987 RMK A01 T01240102  RH  086%=      5-min Rain = 0
KLE1 210710Z 28007KT 12/10 A2987 RMK A01 T01220101  RH  087%=      5-min Rain = 0
KLE1 210711Z 29007KT 12/10 A2987 RMK A01 T01220101  RH  087%=      5-min Rain = 0
KLE1 210712Z 29007KT 12/10 A2987 RMK A01 T01220101  RH  087%=      5-min Rain = 0
KLE1 210713Z 29007KT 12/10 A2987 RMK A01 T01220101  RH  087%=      5-min Rain = 0
KLE1 210714Z 28007KT 12/10 A2987 RMK A01 T01210101  RH  087%=      5-min Rain = 0
KLE1 210715Z 28006KT 12/10 A2987 RMK A01 T01210101  RH  087%=      5-min Rain = 0
KLE1 210716Z 27007KT 12/10 A2987 RMK A01 T01210101  RH  087%=      5-min Rain = 0
KLE1 210717Z 27007KT 12/10 A2987 RMK A01 T01210101  RH  087%=      5-min Rain = 0
KLE1 210718Z 28006KT 12/10 A2987 RMK A01 T01210101  RH  087%=      5-min Rain = 0
KLE1 210719Z 28007KT 12/10 A2987 RMK A01 T01220102  RH  087%=      5-min Rain = 0
KLE1 210720Z 28007KT 12/10 A2987 RMK A01 T01230102  RH  087%=      5-min Rain = 0
KLE1 210721Z 30006KT 12/10 A2987 RMK A01 T01230102  RH  087%=      5-min Rain = 0
KLE1 210722Z 30008KT 12/10 A2987 RMK A01 T01240102  RH  086%=      5-min Rain = 0
KLE1 210723Z 30007KT 12/10 A2987 RMK A01 T01220101  RH  087%=      5-min Rain = 0
KLE1 210724Z 29007KT 12/10 A2987 RMK A01 T01210101  RH  087%=      5-min Rain = 0
KLE1 210725Z 30008KT 12/10 A2988 RMK A01 T01220101  RH  087%=      5-min Rain = 0
KLE1 210726Z 30007KT 12/10 A2988 RMK A01 T01210100  RH  087%=      5-min Rain = 0
KLE1 210727Z 30008KT 12/10 A2988 RMK A01 T01210100  RH  087%=      5-min Rain = 0
KLE1 210728Z 30008KT 12/10 A2988 RMK A01 T01210100  RH  087%=      5-min Rain = 0
KLE1 210729Z 31008KT 12/10 A2988 RMK A01 T01200100  RH  087%=      5-min Rain = 0
KLE1 210730Z 31008KT 12/10 A2988 RMK A01 T01200100  RH  087%=      5-min Rain = 0
KLE1 210731Z 30008KT 12/10 A2988 RMK A01 T01200100  RH  088%=      5-min Rain = 0
KLE1 210732Z 30008KT 12/10 A2988 RMK A01 T01200100  RH  087%=      5-min Rain = 0
KLE1 210733Z 29008KT 12/10 A2988 RMK A01 T01200099  RH  087%=      5-min Rain = 0
KLE1 210734Z 29008KT 12/10 A2988 RMK A01 T01200098  RH  086%=      5-min Rain = 0
KLE1 210735Z 29008KT 12/10 A2988 RMK A01 T01200098  RH  086%=      5-min Rain = 0
KLE1 210736Z 29008KT 12/10 A2988 RMK A01 T01200097  RH  086%=      5-min Rain = 0
KLE1 210737Z 28008KT 12/10 A2988 RMK A01 T01200096  RH  085%=      5-min Rain = 0
KLE1 210738Z 29008KT 12/10 A2988 RMK A01 T01190095  RH  085%=      5-min Rain = 0
KLE1 210739Z 29008KT 12/09 A2988 RMK A01 T01180094  RH  085%=      5-min Rain = 0
KLE1 210740Z 29007KT 12/09 A2988 RMK A01 T01170093  RH  086%=      5-min Rain = 0
KLE1 210741Z 29008KT 12/09 A2988 RMK A01 T01160093  RH  086%=      5-min Rain = 0
KLE1 210742Z 29008KT 12/09 A2988 RMK A01 T01150093  RH  086%=      5-min Rain = 0
KLE1 210743Z 29008KT 12/09 A2988 RMK A01 T01150092  RH  086%=      5-min Rain = 0
KLE1 210744Z 29008KT 11/09 A2988 RMK A01 T01140092  RH  086%=      5-min Rain = 0
KLE1 210745Z 29008KT 11/09 A2988 RMK A01 T01130091  RH  086%=      5-min Rain = 0
KLE1 210746Z 29008KT 11/09 A2988 RMK A01 T01130091  RH  086%=      5-min Rain = 0
KLE1 210747Z 30008KT 11/09 A2988 RMK A01 T01130091  RH  086%=      5-min Rain = 0
KLE1 210748Z 30008KT 11/09 A2988 RMK A01 T01130090  RH  086%=      5-min Rain = 0
KLE1 210749Z 30008KT 11/09 A2988 RMK A01 T01120089  RH  086%=      5-min Rain = 0
KLE1 210750Z 30009KT 11/09 A2988 RMK A01 T01120089  RH  086%=      5-min Rain = 0
KLE1 210751Z 30009KT 11/09 A2988 RMK A01 T01120089  RH  086%=      5-min Rain = 0
KLE1 210752Z 30009KT 11/09 A2988 RMK A01 T01120088  RH  085%=      5-min Rain = 0
KLE1 210753Z 30009KT 11/09 A2988 RMK A01 T01120087  RH  085%=      5-min Rain = 0
KLE1 210754Z 30009KT 11/09 A2988 RMK A01 T01120087  RH  085%=      5-min Rain = 0
KLE1 210755Z 29008KT 11/09 A2988 RMK A01 T01120087  RH  084%=      5-min Rain = 0
KLE1 210756Z 29008KT 11/09 A2988 RMK A01 T01120087  RH  084%=      5-min Rain = 0
KLE1 210757Z 29008KT 11/09 A2988 RMK A01 T01120086  RH  084%=      5-min Rain = 0
KLE1 210758Z 29008KT 11/09 A2988 RMK A01 T01110086  RH  084%=      5-min Rain = 0
KLE1 210759Z 29008KT 11/09 A2988 RMK A01 T01110085  RH  084%=      5-min Rain = 0
KLE1 210800Z 29008KT 11/09 A2988 RMK A01 T01100085  RH  084%=      5-min Rain = 0
KLE1 210801Z 29008KT 11/09 A2988 RMK A01 T01100085  RH  084%=      5-min Rain = 0
KLE1 210802Z 29008KT 11/08 A2988 RMK A01 T01090084  RH  085%=      5-min Rain = 0
KLE1 210803Z 28008KT 11/08 A2988 RMK A01 T01090084  RH  085%=      5-min Rain = 0
KLE1 210804Z 28008KT 11/08 A2988 RMK A01 T01080084  RH  085%=      5-min Rain = 0
KLE1 210805Z 28008KT 11/08 A2988 RMK A01 T01080084  RH  085%=      5-min Rain = 0
KLE1 210806Z 29007KT 11/08 A2988 RMK A01 T01070084  RH  086%=      5-min Rain = 0
KLE1 210807Z 29007KT 11/09 A2988 RMK A01 T01070085  RH  086%=      5-min Rain = 0
KLE1 210808Z 29007KT 11/08 A2988 RMK A01 T01070084  RH  086%=      5-min Rain = 0
KLE1 210809Z 29008KT 11/08 A2988 RMK A01 T01050084  RH  087%=      5-min Rain = 0
KLE1 210810Z 29008KT 10/08 A2989 RMK A01 T01040083  RH  087%=      5-min Rain = 0
KLE1 210811Z 30007KT 11/08 A2989 RMK A01 T01050083  RH  086%=      5-min Rain = 0
KLE1 210812Z 29007KT 11/08 A2989 RMK A01 T01050083  RH  086%=      5-min Rain = 0
KLE1 210813Z 29007KT 11/08 A2989 RMK A01 T01050083  RH  086%=      5-min Rain = 0
KLE1 210814Z 29007KT 10/08 A2989 RMK A01 T01040082  RH  086%=      5-min Rain = 0
KLE1 210815Z 29007KT 10/08 A2989 RMK A01 T01040082  RH  086%=      5-min Rain = 0
KLE1 210816Z 29007KT 10/08 A2989 RMK A01 T01030082  RH  087%=      5-min Rain = 0
KLE1 210817Z 29007KT 10/08 A2989 RMK A01 T01020081  RH  087%=      5-min Rain = 0
KLE1 210818Z 30007KT 10/08 A2989 RMK A01 T01020082  RH  087%=      5-min Rain = 0
KLE1 210819Z 31007KT 10/08 A2989 RMK A01 T01020082  RH  087%=      5-min Rain = 0
KLE1 210820Z 32010KT 10/08 A299 RMK A01 T01020081  RH  087%=      5-min Rain = 0
KLE1 210821Z 33012KT 10/08 A299 RMK A01 T01010081  RH  087%=      5-min Rain = 0
KLE1 210822Z 32013KT 10/08 A299 RMK A01 T01020082  RH  087%=      5-min Rain = 0
KLE1 210823Z 32013KT 11/08 A299 RMK A01 T01050083  RH  086%=      5-min Rain = 0
KLE1 210824Z 33014KT 11/08 A299 RMK A01 T01080083  RH  085%=      5-min Rain = 0
KLE1 210825Z 32017KT 11/08 A299 RMK A01 T01100083  RH  084%=      5-min Rain = 0
KLE1 210826Z 31016KT 12/08 A299 RMK A01 T01150084  RH  082%=      5-min Rain = 0
KLE1 210827Z 31013KT 12/08 A299 RMK A01 T01190084  RH  079%=      5-min Rain = 0
KLE1 210828Z 31011KT 12/08 A299 RMK A01 T01200083  RH  078%=      5-min Rain = 0
KLE1 210829Z 31011KT 12/08 A299 RMK A01 T01190082  RH  078%=      5-min Rain = 0
KLE1 210830Z 32012KT 12/08 A299 RMK A01 T01170082  RH  079%=      5-min Rain = 0
KLE1 210831Z 31011KT 12/08 A299 RMK A01 T01170082  RH  079%=      5-min Rain = 0
KLE1 210832Z 31010KT 12/08 A299 RMK A01 T01180082  RH  078%=      5-min Rain = 0
KLE1 210833Z 31010KT 12/08 A299 RMK A01 T01190082  RH  078%=      5-min Rain = 0
KLE1 210834Z 31011KT 12/08 A299 RMK A01 T01190081  RH  078%=      5-min Rain = 0
KLE1 210835Z 31011KT 12/08 A299 RMK A01 T01190081  RH  078%=      5-min Rain = 0
KLE1 210836Z 31010KT 12/08 A299 RMK A01 T01190081  RH  077%=      5-min Rain = 0
KLE1 210837Z 31010KT 12/08 A299 RMK A01 T01200081  RH  077%=      5-min Rain = 0
KLE1 210838Z 32009KT 12/08 A299 RMK A01 T01190081  RH  077%=      5-min Rain = 0
KLE1 210839Z 32011KT 12/08 A299 RMK A01 T01190082  RH  078%=      5-min Rain = 0
KLE1 210840Z 32010KT 12/08 A299 RMK A01 T01190082  RH  078%=      5-min Rain = 0
KLE1 210841Z 32011KT 12/08 A299 RMK A01 T01200082  RH  078%=      5-min Rain = 0
KLE1 210842Z 32011KT 12/08 A2991 RMK A01 T01190082  RH  078%=      5-min Rain = 0
KLE1 210843Z 32010KT 12/08 A2991 RMK A01 T01200082  RH  078%=      5-min Rain = 0
KLE1 210844Z 32010KT 12/08 A2991 RMK A01 T01190082  RH  078%=      5-min Rain = 0
KLE1 210845Z 33011KT 12/08 A2991 RMK A01 T01190082  RH  078%=      5-min Rain = 0
KLE1 210846Z 33010KT 12/08 A2991 RMK A01 T01180081  RH  078%=      5-min Rain = 0
KLE1 210847Z 33009KT 12/08 A2991 RMK A01 T01180082  RH  078%=      5-min Rain = 0
KLE1 210848Z 33010KT 12/08 A2991 RMK A01 T01170082  RH  079%=      5-min Rain = 0
KLE1 210849Z 33010KT 12/08 A2991 RMK A01 T01160081  RH  079%=      5-min Rain = 0
KLE1 210850Z 33010KT 11/08 A2991 RMK A01 T01140081  RH  080%=      5-min Rain = 0
KLE1 210851Z 33012KT 11/08 A2991 RMK A01 T01130081  RH  081%=      5-min Rain = 0
KLE1 210852Z 33011KT 11/08 A2991 RMK A01 T01130082  RH  081%=      5-min Rain = 0
KLE1 210853Z 33011KT 11/08 A2991 RMK A01 T01130082  RH  081%=      5-min Rain = 0
KLE1 210854Z 32010KT 11/08 A2991 RMK A01 T01130082  RH  081%=      5-min Rain = 0
KLE1 210855Z 32011KT 11/08 A2991 RMK A01 T01130082  RH  081%=      5-min Rain = 0
KLE1 210856Z 32011KT 11/08 A2991 RMK A01 T01130082  RH  081%=      5-min Rain = 0
KLE1 210857Z 32012KT 11/08 A2991 RMK A01 T01120082  RH  081%=      5-min Rain = 0
KLE1 210858Z 33012KT 11/08 A2991 RMK A01 T01120082  RH  082%=      5-min Rain = 0
KLE1 210859Z 33012KT 11/08 A2991 RMK A01 T01120082  RH  082%=      5-min Rain = 0
KLE1 210900Z 33012KT 11/08 A2991 RMK A01 T01120082  RH  081%=      5-min Rain = 0
KLE1 210901Z 33014KT 11/08 A2991 RMK A01 T01120082  RH  082%=      5-min Rain = 0
KLE1 210902Z 33013KT 11/08 A2991 RMK A01 T01120082  RH  082%=      5-min Rain = 0
KLE1 210903Z 33012KT 11/08 A2991 RMK A01 T01110082  RH  082%=      5-min Rain = 0
KLE1 210904Z 34012KT 11/08 A2991 RMK A01 T01100081  RH  082%=      5-min Rain = 0
KLE1 210905Z 34012KT 11/08 A2991 RMK A01 T01090081  RH  083%=      5-min Rain = 0
KLE1 210906Z 34011KT 11/08 A2991 RMK A01 T01090081  RH  083%=      5-min Rain = 0
KLE1 210907Z 34010KT 11/08 A2991 RMK A01 T01080080  RH  083%=      5-min Rain = 0
KLE1 210908Z 34011KT 11/08 A2991 RMK A01 T01080080  RH  083%=      5-min Rain = 0
KLE1 210909Z 34011KT 11/08 A2991 RMK A01 T01070080  RH  083%=      5-min Rain = 0
KLE1 210910Z 34011KT 11/08 A2991 RMK A01 T01060080  RH  083%=      5-min Rain = 0
KLE1 210911Z 35010KT 11/08 A2991 RMK A01 T01060079  RH  084%=      5-min Rain = 0
KLE1 210912Z 35010KT 11/08 A2991 RMK A01 T01050079  RH  084%=      5-min Rain = 0
KLE1 210913Z 35011KT 10/08 A2991 RMK A01 T01030078  RH  085%=      5-min Rain = 0
KLE1 210914Z 35011KT 10/08 A2991 RMK A01 T01030079  RH  085%=      5-min Rain = 0
KLE1 210915Z 35010KT 10/08 A2991 RMK A01 T01030079  RH  085%=      5-min Rain = 0
KLE1 210916Z 35009KT 10/08 A2991 RMK A01 T01030078  RH  085%=      5-min Rain = 0
KLE1 210917Z 34009KT 10/08 A2992 RMK A01 T01020078  RH  085%=      5-min Rain = 0
KLE1 210918Z 34009KT 10/08 A2992 RMK A01 T01010077  RH  085%=      5-min Rain = 0
KLE1 210919Z 34009KT 10/08 A2992 RMK A01 T01010076  RH  085%=      5-min Rain = 0
KLE1 210920Z 34009KT 10/08 A2992 RMK A01 T01000075  RH  085%=      5-min Rain = 0
KLE1 210921Z 33010KT 10/08 A2992 RMK A01 T00990075  RH  085%=      5-min Rain = 0
KLE1 210922Z 33009KT 10/07 A2992 RMK A01 T00980073  RH  084%=      5-min Rain = 0
KLE1 210923Z 33012KT 10/07 A2992 RMK A01 T00980072  RH  084%=      5-min Rain = 0
KLE1 210924Z 33012KT 10/07 A2992 RMK A01 T00970070  RH  083%=      5-min Rain = 0
KLE1 210925Z 33011KT 10/07 A2992 RMK A01 T00970068  RH  082%=      5-min Rain = 0
KLE1 210926Z 33011KT 10/07 A2992 RMK A01 T00970067  RH  082%=      5-min Rain = 0
KLE1 210927Z 33012KT 10/07 A2992 RMK A01 T00960065  RH  081%=      5-min Rain = 0
KLE1 210928Z 33013KT 10/06 A2992 RMK A01 T00960063  RH  080%=      5-min Rain = 0
KLE1 210929Z 33013KT 10/06 A2992 RMK A01 T00950061  RH  079%=      5-min Rain = 0
KLE1 210930Z 33014KT 10/06 A2992 RMK A01 T00950060  RH  079%=      5-min Rain = 0
KLE1 210931Z 33012KT 10/06 A2992 RMK A01 T00950059  RH  079%=      5-min Rain = 0
KLE1 210932Z 33014KT 09/06 A2992 RMK A01 T00940059  RH  079%=      5-min Rain = 0
KLE1 210933Z 33012KT 09/06 A2992 RMK A01 T00940058  RH  078%=      5-min Rain = 0
KLE1 210934Z 33014KT 09/06 A2992 RMK A01 T00930058  RH  078%=      5-min Rain = 0
KLE1 210935Z 33014KT 09/06 A2992 RMK A01 T00930057  RH  078%=      5-min Rain = 0
KLE1 210936Z 33014KT 09/06 A2992 RMK A01 T00930057  RH  078%=      5-min Rain = 0
KLE1 210937Z 33015KT 09/06 A2992 RMK A01 T00930056  RH  078%=      5-min Rain = 0
KLE1 210938Z 34014KT 09/06 A2992 RMK A01 T00930055  RH  077%=      5-min Rain = 0
KLE1 210939Z 33014KT 09/06 A2992 RMK A01 T00930056  RH  078%=      5-min Rain = 0
KLE1 210940Z 33013KT 09/06 A2993 RMK A01 T00930055  RH  078%=      5-min Rain = 0
KLE1 210941Z 33012KT 09/06 A2993 RMK A01 T00920055  RH  078%=      5-min Rain = 0
KLE1 210942Z 33013KT 09/06 A2993 RMK A01 T00920055  RH  078%=      5-min Rain = 0
KLE1 210943Z 33012KT 09/06 A2993 RMK A01 T00920055  RH  078%=      5-min Rain = 0
KLE1 210944Z 33012KT 09/06 A2993 RMK A01 T00910055  RH  078%=      5-min Rain = 0
KLE1 210945Z 34012KT 09/06 A2993 RMK A01 T00910055  RH  078%=      5-min Rain = 0
KLE1 210946Z 34012KT 09/06 A2993 RMK A01 T00910055  RH  078%=      5-min Rain = 0
KLE1 210947Z 33013KT 09/05 A2993 RMK A01 T00900054  RH  078%=      5-min Rain = 0
KLE1 210948Z 33012KT 09/05 A2993 RMK A01 T00900054  RH  078%=      5-min Rain = 0
KLE1 210949Z 33012KT 09/06 A2993 RMK A01 T00900055  RH  078%=      5-min Rain = 0
KLE1 210950Z 33012KT 09/05 A2993 RMK A01 T00900054  RH  078%=      5-min Rain = 0
KLE1 210951Z 33013KT 09/05 A2994 RMK A01 T00890054  RH  078%=      5-min Rain = 0
KLE1 210952Z 33012KT 09/05 A2994 RMK A01 T00890054  RH  078%=      5-min Rain = 0
KLE1 210953Z 33012KT 09/05 A2994 RMK A01 T00890053  RH  078%=      5-min Rain = 0
KLE1 210954Z 33010KT 09/05 A2994 RMK A01 T00890053  RH  078%=      5-min Rain = 0
KLE1 210955Z 33011KT 09/05 A2994 RMK A01 T00890053  RH  079%=      5-min Rain = 0
KLE1 210956Z 33012KT 09/05 A2994 RMK A01 T00880053  RH  079%=      5-min Rain = 0
KLE1 210957Z 33010KT 09/05 A2994 RMK A01 T00880052  RH  079%=      5-min Rain = 0
KLE1 210958Z 33010KT 09/05 A2994 RMK A01 T00880053  RH  079%=      5-min Rain = 0
KLE1 210959Z 33010KT 09/05 A2994 RMK A01 T00860053  RH  079%=      5-min Rain = 0
KLE1 211000Z 33011KT 09/05 A2994 RMK A01 T00860053  RH  079%=      5-min Rain = 0
KLE1 211001Z 33010KT 09/05 A2994 RMK A01 T00860053  RH  079%=      5-min Rain = 0
KLE1 211002Z 33010KT 09/05 A2994 RMK A01 T00860053  RH  079%=      5-min Rain = 0
KLE1 211003Z 32011KT 09/05 A2995 RMK A01 T00860053  RH  080%=      5-min Rain = 0
KLE1 211004Z 33011KT 09/05 A2995 RMK A01 T00850052  RH  080%=      5-min Rain = 0
KLE1 211005Z 33012KT 09/05 A2995 RMK A01 T00850052  RH  079%=      5-min Rain = 0
KLE1 211006Z 33012KT 09/05 A2995 RMK A01 T00850052  RH  079%=      5-min Rain = 0
KLE1 211007Z 33011KT 09/05 A2995 RMK A01 T00850051  RH  079%=      5-min Rain = 0
KLE1 211008Z 33012KT 09/05 A2995 RMK A01 T00850051  RH  079%=      5-min Rain = 0
KLE1 211009Z 33012KT 08/05 A2995 RMK A01 T00840051  RH  079%=      5-min Rain = 0
KLE1 211010Z 33011KT 08/05 A2995 RMK A01 T00840050  RH  079%=      5-min Rain = 0
KLE1 211011Z 32009KT 08/05 A2995 RMK A01 T00840050  RH  079%=      5-min Rain = 0
KLE1 211012Z 33009KT 08/05 A2996 RMK A01 T00840050  RH  079%=      5-min Rain = 0
KLE1 211013Z 32008KT 08/05 A2996 RMK A01 T00830049  RH  079%=      5-min Rain = 0
KLE1 211014Z 33010KT 08/05 A2996 RMK A01 T00830049  RH  079%=      5-min Rain = 0
KLE1 211015Z 32008KT 08/05 A2996 RMK A01 T00820048  RH  079%=      5-min Rain = 0
KLE1 211016Z 32007KT 08/05 A2996 RMK A01 T00820049  RH  079%=      5-min Rain = 0
KLE1 211017Z 32009KT 08/05 A2996 RMK A01 T00810048  RH  080%=      5-min Rain = 0
KLE1 211018Z 31009KT 08/05 A2996 RMK A01 T00810048  RH  080%=      5-min Rain = 0
KLE1 211019Z 32008KT 08/05 A2996 RMK A01 T00800047  RH  080%=      5-min Rain = 0
KLE1 211020Z 32009KT 08/05 A2996 RMK A01 T00810047  RH  079%=      5-min Rain = 0
KLE1 211021Z 32009KT 08/05 A2996 RMK A01 T00810047  RH  079%=      5-min Rain = 0
KLE1 211022Z 32008KT 08/05 A2996 RMK A01 T00810047  RH  079%=      5-min Rain = 0
KLE1 211023Z 32008KT 08/05 A2996 RMK A01 T00810047  RH  079%=      5-min Rain = 0
KLE1 211024Z 33007KT 08/05 A2996 RMK A01 T00800047  RH  079%=      5-min Rain = 0
KLE1 211025Z 32007KT 08/05 A2996 RMK A01 T00800046  RH  079%=      5-min Rain = 0
KLE1 211026Z 33009KT 08/05 A2996 RMK A01 T00800046  RH  079%=      5-min Rain = 0
KLE1 211027Z 33007KT 08/05 A2996 RMK A01 T00800046  RH  079%=      5-min Rain = 0
KLE1 211028Z 34006KT 08/05 A2996 RMK A01 T00800046  RH  079%=      5-min Rain = 0
KLE1 211029Z 33005KT 08/05 A2996 RMK A01 T00790046  RH  079%=      5-min Rain = 0
KLE1 211030Z 33004KT 08/05 A2997 RMK A01 T00780045  RH  080%=      5-min Rain = 0
KLE1 211031Z 34004KT 08/05 A2997 RMK A01 T00780045  RH  080%=      5-min Rain = 0
KLE1 211032Z 34005KT 08/05 A2997 RMK A01 T00770045  RH  080%=      5-min Rain = 0
KLE1 211033Z 35005KT 08/04 A2997 RMK A01 T00760044  RH  080%=      5-min Rain = 0
KLE1 211034Z 34004KT 08/04 A2997 RMK A01 T00760044  RH  080%=      5-min Rain = 0
KLE1 211035Z 34005KT 08/04 A2997 RMK A01 T00750043  RH  080%=      5-min Rain = 0
KLE1 211036Z 33005KT 08/04 A2997 RMK A01 T00760043  RH  080%=      5-min Rain = 0
KLE1 211037Z 33005KT 08/04 A2997 RMK A01 T00760043  RH  079%=      5-min Rain = 0
KLE1 211038Z 33007KT 08/04 A2997 RMK A01 T00760042  RH  079%=      5-min Rain = 0
KLE1 211039Z 32006KT 08/04 A2997 RMK A01 T00760042  RH  079%=      5-min Rain = 0
KLE1 211040Z 32005KT 08/04 A2997 RMK A01 T00760043  RH  079%=      5-min Rain = 0
KLE1 211041Z 33005KT 08/04 A2997 RMK A01 T00750042  RH  080%=      5-min Rain = 0
KLE1 211042Z 33005KT 08/04 A2997 RMK A01 T00750042  RH  080%=      5-min Rain = 0
KLE1 211043Z 33005KT 07/04 A2997 RMK A01 T00740042  RH  080%=      5-min Rain = 0
KLE1 211044Z 33004KT 07/04 A2997 RMK A01 T00730041  RH  080%=      5-min Rain = 0
KLE1 211045Z 33004KT 07/04 A2997 RMK A01 T00720041  RH  081%=      5-min Rain = 0
KLE1 211046Z 33004KT 07/04 A2997 RMK A01 T00720041  RH  081%=      5-min Rain = 0
KLE1 211047Z 32004KT 07/04 A2997 RMK A01 T00720040  RH  080%=      5-min Rain = 0
KLE1 211048Z 31004KT 07/04 A2997 RMK A01 T00720040  RH  080%=      5-min Rain = 0
KLE1 211049Z 33006KT 07/04 A2997 RMK A01 T00720040  RH  080%=      5-min Rain = 0
KLE1 211050Z 32005KT 07/04 A2997 RMK A01 T00720040  RH  080%=      5-min Rain = 0
KLE1 211051Z 30005KT 07/04 A2997 RMK A01 T00720040  RH  080%=      5-min Rain = 0
KLE1 211052Z 33004KT 07/04 A2997 RMK A01 T00720040  RH  080%=      5-min Rain = 0
KLE1 211053Z 31004KT 07/04 A2997 RMK A01 T00720040  RH  080%=      5-min Rain = 0
KLE1 211054Z 32005KT 07/04 A2997 RMK A01 T00720040  RH  080%=      5-min Rain = 0
KLE1 211055Z 33005KT 07/04 A2997 RMK A01 T00720039  RH  080%=      5-min Rain = 0
KLE1 211056Z 34005KT 07/04 A2997 RMK A01 T00710038  RH  080%=      5-min Rain = 0
KLE1 211057Z 32005KT 07/04 A2997 RMK A01 T00710038  RH  080%=      5-min Rain = 0
KLE1 211058Z 30004KT 07/04 A2997 RMK A01 T00720038  RH  079%=      5-min Rain = 0
KLE1 211059Z 31004KT 07/04 A2997 RMK A01 T00720038  RH  079%=      5-min Rain = 0
KLE1 211100Z 31003KT 07/04 A2998 RMK A01 T00720039  RH  079%=      5-min Rain = 0
KLE1 211101Z 30004KT 07/04 A2998 RMK A01 T00720039  RH  079%=      5-min Rain = 0
KLE1 211102Z 33006KT 07/04 A2998 RMK A01 T00720038  RH  079%=      5-min Rain = 0
KLE1 211103Z 33005KT 07/04 A2998 RMK A01 T00720037  RH  078%=      5-min Rain = 0
KLE1 211104Z 31004KT 07/04 A2998 RMK A01 T00720037  RH  079%=      5-min Rain = 0
KLE1 211105Z 31004KT 07/04 A2998 RMK A01 T00710037  RH  079%=      5-min Rain = 0
KLE1 211106Z 33005KT 07/04 A2998 RMK A01 T00710038  RH  079%=      5-min Rain = 0
KLE1 211107Z 31003KT 07/04 A2999 RMK A01 T00710037  RH  079%=      5-min Rain = 0
KLE1 211108Z 31003KT 07/04 A2999 RMK A01 T00700037  RH  079%=      5-min Rain = 0
KLE1 211109Z 30003KT 07/04 A2999 RMK A01 T00700037  RH  080%=      5-min Rain = 0
KLE1 211110Z 30004KT 07/04 A2999 RMK A01 T00690037  RH  080%=      5-min Rain = 0
KLE1 211111Z 29004KT 07/04 A2999 RMK A01 T00690037  RH  080%=      5-min Rain = 0
KLE1 211112Z 30004KT 07/04 A2999 RMK A01 T00690037  RH  080%=      5-min Rain = 0
KLE1 211113Z 30005KT 07/04 A2999 RMK A01 T00690036  RH  079%=      5-min Rain = 0
KLE1 211114Z 30005KT 07/04 A2999 RMK A01 T00700037  RH  080%=      5-min Rain = 0
KLE1 211115Z 31005KT 07/04 A2999 RMK A01 T00690036  RH  080%=      5-min Rain = 0
KLE1 211116Z 30006KT 07/04 A2999 RMK A01 T00680036  RH  080%=      5-min Rain = 0
KLE1 211117Z 30006KT 07/04 A2999 RMK A01 T00680037  RH  081%=      5-min Rain = 0
KLE1 211118Z 31006KT 07/04 A2999 RMK A01 T00670036  RH  081%=      5-min Rain = 0
KLE1 211119Z 31006KT 07/04 A2999 RMK A01 T00670036  RH  081%=      5-min Rain = 0
KLE1 211120Z 32007KT 07/04 A2999 RMK A01 T00680037  RH  081%=      5-min Rain = 0
KLE1 211121Z 32006KT 07/04 A2999 RMK A01 T00680037  RH  081%=      5-min Rain = 0
KLE1 211122Z 31004KT 07/04 A2999 RMK A01 T00670037  RH  081%=      5-min Rain = 0
KLE1 211123Z 32007KT 07/04 A30 RMK A01 T00670037  RH  081%=      5-min Rain = 0
KLE1 211124Z 32006KT 07/04 A30 RMK A01 T00670037  RH  081%=      5-min Rain = 0
KLE1 211125Z 32008KT 07/04 A30 RMK A01 T00670037  RH  081%=      5-min Rain = 0
KLE1 211126Z 32008KT 07/04 A30 RMK A01 T00670036  RH  081%=      5-min Rain = 0
KLE1 211127Z 32008KT 07/04 A30 RMK A01 T00680036  RH  080%=      5-min Rain = 0
KLE1 211128Z 33008KT 07/04 A30 RMK A01 T00690036  RH  079%=      5-min Rain = 0
KLE1 211129Z 33006KT 07/04 A30 RMK A01 T00690036  RH  079%=      5-min Rain = 0
KLE1 211130Z 33008KT 07/04 A30 RMK A01 T00690036  RH  080%=      5-min Rain = 0
KLE1 211131Z 35010KT 07/04 A30 RMK A01 T00680035  RH  080%=      5-min Rain = 0
KLE1 211132Z 35010KT 07/04 A30 RMK A01 T00680035  RH  080%=      5-min Rain = 0
KLE1 211133Z 33011KT 07/04 A30 RMK A01 T00680035  RH  080%=      5-min Rain = 0
KLE1 211134Z 34010KT 07/04 A30 RMK A01 T00680035  RH  080%=      5-min Rain = 0
KLE1 211135Z 34011KT 07/04 A30 RMK A01 T00680035  RH  080%=      5-min Rain = 0
KLE1 211136Z 33011KT 07/04 A30 RMK A01 T00670035  RH  080%=      5-min Rain = 0
KLE1 211137Z 33013KT 07/04 A30 RMK A01 T00670035  RH  080%=      5-min Rain = 0
KLE1 211138Z 34011KT 07/03 A30 RMK A01 T00670034  RH  080%=      5-min Rain = 0
KLE1 211139Z 33010KT 07/04 A30 RMK A01 T00670035  RH  080%=      5-min Rain = 0
KLE1 211140Z 32011KT 07/03 A30 RMK A01 T00670034  RH  080%=      5-min Rain = 0
KLE1 211141Z 33012KT 07/03 A30 RMK A01 T00660034  RH  080%=      5-min Rain = 0
KLE1 211142Z 33009KT 07/03 A30 RMK A01 T00660033  RH  079%=      5-min Rain = 0
KLE1 211143Z 33007KT 07/03 A30 RMK A01 T00660034  RH  080%=      5-min Rain = 0
KLE1 211144Z 33009G15KT 07/03 A30 RMK A01 T00660034  RH  080%=      5-min Rain = 0
KLE1 211145Z 34010KT 07/03 A30 RMK A01 T00650034  RH  080%=      5-min Rain = 0
KLE1 211146Z 34009KT 06/03 A30 RMK A01 T00640034  RH  081%=      5-min Rain = 0
KLE1 211147Z 34008KT 06/03 A30 RMK A01 T00640034  RH  081%=      5-min Rain = 0
KLE1 211148Z 33009KT 06/03 A30 RMK A01 T00630034  RH  081%=      5-min Rain = 0
KLE1 211149Z 33013KT 06/03 A30 RMK A01 T00630033  RH  081%=      5-min Rain = 0
KLE1 211150Z 33012KT 06/03 A30 RMK A01 T00630033  RH  081%=      5-min Rain = 0
KLE1 211151Z 33010KT 06/03 A30 RMK A01 T00640033  RH  080%=      5-min Rain = 0
KLE1 211152Z 33010KT 06/03 A30 RMK A01 T00640033  RH  080%=      5-min Rain = 0
KLE1 211153Z 33009KT 06/03 A30 RMK A01 T00640033  RH  080%=      5-min Rain = 0
KLE1 211154Z 33010KT 06/03 A30 RMK A01 T00640033  RH  080%=      5-min Rain = 0
KLE1 211155Z 34010KT 06/03 A3001 RMK A01 T00630033  RH  081%=      5-min Rain = 0
KLE1 211156Z 33011KT 06/03 A3001 RMK A01 T00620033  RH  081%=      5-min Rain = 0
KLE1 211157Z 33010KT 06/03 A3001 RMK A01 T00620032  RH  081%=      5-min Rain = 0
KLE1 211158Z 34011KT 06/03 A3001 RMK A01 T00620033  RH  081%=      5-min Rain = 0
KLE1 211159Z 33011KT 06/03 A3001 RMK A01 T00620032  RH  081%=      5-min Rain = 0
KLE1 211200Z 33009KT 06/03 A3001 RMK A01 T00620032  RH  081%=      5-min Rain = 0
KLE1 211201Z 32009KT 06/03 A3001 RMK A01 T00620033  RH  081%=      5-min Rain = 0
KLE1 211202Z 32009KT 06/03 A3001 RMK A01 T00620032  RH  082%=      5-min Rain = 0
KLE1 211203Z 32009KT 06/03 A3001 RMK A01 T00610033  RH  082%=      5-min Rain = 0
KLE1 211204Z 32009KT 06/03 A3001 RMK A01 T00610033  RH  082%=      5-min Rain = 0
KLE1 211205Z 33008KT 06/03 A3001 RMK A01 T00600032  RH  082%=      5-min Rain = 0
KLE1 211206Z 33009KT 06/03 A3001 RMK A01 T00600033  RH  082%=      5-min Rain = 0
KLE1 211207Z 33010KT 06/03 A3001 RMK A01 T00600032  RH  082%=      5-min Rain = 0
KLE1 211208Z 32009KT 06/03 A3001 RMK A01 T00600032  RH  082%=      5-min Rain = 0
KLE1 211209Z 32008KT 06/03 A3001 RMK A01 T00610032  RH  082%=      5-min Rain = 0
KLE1 211210Z 33009KT 06/03 A3001 RMK A01 T00610032  RH  082%=      5-min Rain = 0
KLE1 211211Z 32010KT 06/03 A3001 RMK A01 T00600031  RH  082%=      5-min Rain = 0
KLE1 211212Z 32012KT 06/03 A3001 RMK A01 T00610031  RH  081%=      5-min Rain = 0
KLE1 211213Z 32011KT 06/03 A3001 RMK A01 T00610031  RH  081%=      5-min Rain = 0
KLE1 211214Z 33010KT 06/03 A3001 RMK A01 T00610031  RH  081%=      5-min Rain = 0
KLE1 211215Z 32010KT 06/03 A3001 RMK A01 T00600031  RH  082%=      5-min Rain = 0
KLE1 211216Z 33009KT 06/03 A3001 RMK A01 T00600031  RH  082%=      5-min Rain = 0
KLE1 211217Z 32008KT 06/03 A3001 RMK A01 T00600031  RH  082%=      5-min Rain = 0
KLE1 211218Z 33010KT 06/03 A3001 RMK A01 T00590031  RH  082%=      5-min Rain = 0
KLE1 211219Z 33011KT 06/03 A3001 RMK A01 T00590031  RH  082%=      5-min Rain = 0
KLE1 211220Z 33010KT 06/03 A3001 RMK A01 T00590031  RH  082%=      5-min Rain = 0
KLE1 211221Z 33010KT 06/03 A3001 RMK A01 T00590031  RH  082%=      5-min Rain = 0
KLE1 211222Z 33010KT 06/03 A3001 RMK A01 T00580031  RH  083%=      5-min Rain = 0
KLE1 211223Z 32010KT 06/03 A3001 RMK A01 T00580031  RH  083%=      5-min Rain = 0
KLE1 211224Z 32010KT 06/03 A3001 RMK A01 T00580031  RH  082%=      5-min Rain = 0
KLE1 211225Z 32009KT 06/03 A3001 RMK A01 T00580030  RH  082%=      5-min Rain = 0
KLE1 211226Z 32010KT 06/03 A3001 RMK A01 T00580031  RH  082%=      5-min Rain = 0
KLE1 211227Z 32008KT 06/03 A3001 RMK A01 T00580031  RH  083%=      5-min Rain = 0
KLE1 211228Z 32008KT 06/03 A3001 RMK A01 T00580031  RH  083%=      5-min Rain = 0
KLE1 211229Z 32009KT 06/03 A3001 RMK A01 T00580031  RH  083%=      5-min Rain = 0
KLE1 211230Z 31008KT 06/03 A3001 RMK A01 T00570031  RH  083%=      5-min Rain = 0
KLE1 211231Z 31007KT 06/03 A3001 RMK A01 T00570030  RH  083%=      5-min Rain = 0
KLE1 211232Z 32007KT 06/03 A3001 RMK A01 T00570030  RH  083%=      5-min Rain = 0
KLE1 211233Z 32008KT 06/03 A3001 RMK A01 T00570030  RH  083%=      5-min Rain = 0
KLE1 211234Z 32008KT 06/03 A3001 RMK A01 T00560030  RH  083%=      5-min Rain = 0
KLE1 211235Z 32008KT 06/03 A3001 RMK A01 T00560030  RH  083%=      5-min Rain = 0
KLE1 211236Z 32009KT 06/03 A3001 RMK A01 T00560030  RH  084%=      5-min Rain = 0
KLE1 211237Z 32008KT 06/03 A3001 RMK A01 T00560030  RH  083%=      5-min Rain = 0
KLE1 211238Z 32009KT 06/03 A3001 RMK A01 T00560030  RH  083%=      5-min Rain = 0
KLE1 211239Z 32008KT 06/03 A3001 RMK A01 T00560030  RH  083%=      5-min Rain = 0
KLE1 211240Z 32008KT 06/03 A3001 RMK A01 T00560030  RH  084%=      5-min Rain = 0
KLE1 211241Z 32008KT 06/03 A3001 RMK A01 T00550030  RH  084%=      5-min Rain = 0
KLE1 211242Z 32009KT 06/03 A3001 RMK A01 T00550030  RH  084%=      5-min Rain = 0
KLE1 211243Z 32010KT 06/03 A3001 RMK A01 T00550030  RH  084%=      5-min Rain = 0
KLE1 211244Z 32009KT 06/03 A3001 RMK A01 T00550030  RH  084%=      5-min Rain = 0
KLE1 211245Z 32008KT 06/03 A3001 RMK A01 T00550030  RH  084%=      5-min Rain = 0
KLE1 211246Z 32010KT 06/03 A3001 RMK A01 T00550029  RH  083%=      5-min Rain = 0
KLE1 211247Z 32010KT 06/03 A3001 RMK A01 T00560029  RH  083%=      5-min Rain = 0
KLE1 211248Z 33011KT 06/03 A3001 RMK A01 T00560029  RH  083%=      5-min Rain = 0
KLE1 211249Z 32008KT 06/03 A3001 RMK A01 T00560029  RH  083%=      5-min Rain = 0
KLE1 211250Z 32008KT 06/03 A3001 RMK A01 T00560029  RH  083%=      5-min Rain = 0
KLE1 211251Z 32008KT 06/03 A3001 RMK A01 T00550029  RH  083%=      5-min Rain = 0
KLE1 211252Z 33008KT 06/03 A3001 RMK A01 T00550029  RH  083%=      5-min Rain = 0
KLE1 211253Z 32008KT 05/03 A3002 RMK A01 T00540029  RH  084%=      5-min Rain = 0
KLE1 211254Z 32008KT 05/03 A3002 RMK A01 T00540029  RH  084%=      5-min Rain = 0
KLE1 211255Z 33008KT 05/03 A3002 RMK A01 T00540028  RH  084%=      5-min Rain = 0
KLE1 211256Z 33009KT 05/03 A3002 RMK A01 T00540028  RH  084%=      5-min Rain = 0
KLE1 211257Z 33009KT 05/03 A3002 RMK A01 T00540028  RH  083%=      5-min Rain = 0
KLE1 211258Z 33008KT 05/03 A3002 RMK A01 T00540028  RH  083%=      5-min Rain = 0
KLE1 211259Z 34009KT 05/03 A3002 RMK A01 T00540028  RH  083%=      5-min Rain = 0
KLE1 211300Z 34009KT 05/03 A3002 RMK A01 T00540028  RH  084%=      5-min Rain = 0
KLE1 211301Z 33009KT 05/03 A3002 RMK A01 T00540028  RH  084%=      5-min Rain = 0
KLE1 211302Z 33010KT 05/03 A3002 RMK A01 T00540028  RH  084%=      5-min Rain = 0
KLE1 211303Z 33011KT 05/03 A3002 RMK A01 T00540028  RH  083%=      5-min Rain = 0
KLE1 211304Z 34010KT 05/03 A3002 RMK A01 T00540028  RH  083%=      5-min Rain = 0
KLE1 211305Z 33008KT 05/03 A3002 RMK A01 T00540028  RH  083%=      5-min Rain = 0
KLE1 211306Z 33008KT 05/03 A3002 RMK A01 T00540027  RH  083%=      5-min Rain = 0
KLE1 211307Z 32008KT 05/03 A3002 RMK A01 T00530027  RH  083%=      5-min Rain = 0
KLE1 211308Z 33009KT 05/03 A3003 RMK A01 T00530027  RH  083%=      5-min Rain = 0
KLE1 211309Z 33008KT 05/03 A3003 RMK A01 T00530027  RH  084%=      5-min Rain = 0
KLE1 211310Z 33008KT 05/03 A3002 RMK A01 T00520027  RH  084%=      5-min Rain = 0
KLE1 211311Z 34010KT 05/03 A3003 RMK A01 T00520026  RH  084%=      5-min Rain = 0
KLE1 211312Z 33010KT 05/03 A3003 RMK A01 T00520026  RH  084%=      5-min Rain = 0
KLE1 211313Z 33009KT 05/03 A3003 RMK A01 T00520026  RH  083%=      5-min Rain = 0
KLE1 211314Z 34009KT 05/03 A3003 RMK A01 T00520026  RH  083%=      5-min Rain = 0
KLE1 211315Z 33010KT 05/03 A3003 RMK A01 T00520026  RH  083%=      5-min Rain = 0
KLE1 211316Z 33008KT 05/03 A3003 RMK A01 T00520026  RH  083%=      5-min Rain = 0
KLE1 211317Z 33007KT 05/03 A3003 RMK A01 T00510025  RH  083%=      5-min Rain = 0
KLE1 211318Z 34008KT 05/03 A3003 RMK A01 T00510026  RH  084%=      5-min Rain = 0
KLE1 211319Z 34008KT 05/03 A3003 RMK A01 T00500025  RH  084%=      5-min Rain = 0
KLE1 211320Z 33007KT 05/03 A3003 RMK A01 T00510025  RH  084%=      5-min Rain = 0
KLE1 211321Z 33009KT 05/03 A3003 RMK A01 T00510025  RH  084%=      5-min Rain = 0
KLE1 211322Z 33007KT 05/03 A3003 RMK A01 T00500025  RH  084%=      5-min Rain = 0
KLE1 211323Z 32007KT 05/03 A3003 RMK A01 T00500025  RH  084%=      5-min Rain = 0
KLE1 211324Z 34009KT 05/03 A3004 RMK A01 T00490025  RH  084%=      5-min Rain = 0
KLE1 211325Z 35008KT 05/02 A3004 RMK A01 T00490024  RH  084%=      5-min Rain = 0
KLE1 211326Z 34008KT 05/02 A3004 RMK A01 T00490024  RH  083%=      5-min Rain = 0
KLE1 211327Z 34009KT 05/02 A3004 RMK A01 T00500024  RH  083%=      5-min Rain = 0
KLE1 211328Z 34008KT 05/02 A3004 RMK A01 T00500024  RH  083%=      5-min Rain = 0
KLE1 211329Z 34009KT 05/02 A3004 RMK A01 T00500024  RH  083%=      5-min Rain = 0
KLE1 211330Z 35007KT 05/02 A3004 RMK A01 T00500024  RH  083%=      5-min Rain = 0
KLE1 211331Z 34006KT 05/02 A3004 RMK A01 T00500024  RH  083%=      5-min Rain = 0
KLE1 211332Z 35006KT 05/02 A3004 RMK A01 T00500023  RH  083%=      5-min Rain = 0
KLE1 211333Z 34010KT 05/02 A3004 RMK A01 T00490023  RH  083%=      5-min Rain = 0
KLE1 211334Z 34010KT 05/02 A3004 RMK A01 T00490022  RH  083%=      5-min Rain = 0
KLE1 211335Z 35010KT 05/02 A3005 RMK A01 T00490022  RH  083%=      5-min Rain = 0
KLE1 211336Z 35008KT 05/02 A3005 RMK A01 T00500022  RH  082%=      5-min Rain = 0
KLE1 211337Z 35009KT 05/02 A3005 RMK A01 T00500022  RH  083%=      5-min Rain = 0
KLE1 211338Z 35010KT 05/02 A3005 RMK A01 T00500022  RH  082%=      5-min Rain = 0
KLE1 211339Z 34009KT 05/02 A3005 RMK A01 T00500022  RH  082%=      5-min Rain = 0
KLE1 211340Z 33010KT 05/02 A3005 RMK A01 T00500022  RH  082%=      5-min Rain = 0
KLE1 211341Z 34007KT 05/02 A3005 RMK A01 T00500022  RH  082%=      5-min Rain = 0
KLE1 211342Z 35010KT 05/02 A3005 RMK A01 T00500022  RH  083%=      5-min Rain = 0
KLE1 211343Z 34008KT 05/02 A3005 RMK A01 T00490022  RH  083%=      5-min Rain = 0
KLE1 211344Z 34008KT 05/02 A3005 RMK A01 T00490023  RH  083%=      5-min Rain = 0
KLE1 211345Z 34008KT 05/02 A3005 RMK A01 T00490022  RH  083%=      5-min Rain = 0
KLE1 211346Z 34007KT 05/02 A3005 RMK A01 T00490023  RH  083%=      5-min Rain = 0
KLE1 211347Z 35007KT 05/02 A3005 RMK A01 T00490023  RH  083%=      5-min Rain = 0
KLE1 211348Z 34007KT 05/02 A3005 RMK A01 T00490023  RH  083%=      5-min Rain = 0
KLE1 211349Z 34008KT 05/02 A3005 RMK A01 T00490023  RH  083%=      5-min Rain = 0
KLE1 211350Z 34009KT 05/02 A3005 RMK A01 T00490022  RH  083%=      5-min Rain = 0
KLE1 211351Z 34010KT 05/02 A3005 RMK A01 T00490022  RH  083%=      5-min Rain = 0
KLE1 211352Z 34008KT 05/02 A3005 RMK A01 T00500022  RH  082%=      5-min Rain = 0
KLE1 211353Z 34007KT 05/02 A3005 RMK A01 T00500023  RH  083%=      5-min Rain = 0
KLE1 211354Z 34008KT 05/02 A3005 RMK A01 T00490023  RH  083%=      5-min Rain = 0
KLE1 211355Z 34008KT 05/02 A3005 RMK A01 T00500024  RH  083%=      5-min Rain = 0
KLE1 211356Z 33007KT 05/02 A3005 RMK A01 T00500024  RH  083%=      5-min Rain = 0
KLE1 211357Z 33008KT 05/02 A3005 RMK A01 T00500024  RH  083%=      5-min Rain = 0
KLE1 211358Z 33008KT 05/02 A3005 RMK A01 T00500024  RH  083%=      5-min Rain = 0
KLE1 211359Z 33009KT 05/02 A3005 RMK A01 T00500023  RH  083%=      5-min Rain = 0
KLE1 211400Z 34008KT 05/02 A3005 RMK A01 T00500022  RH  082%=      5-min Rain = 0
KLE1 211401Z 34006KT 05/02 A3005 RMK A01 T00510023  RH  082%=      5-min Rain = 0
KLE1 211402Z 34008KT 05/02 A3005 RMK A01 T00510022  RH  082%=      5-min Rain = 0
KLE1 211403Z 34007KT 05/02 A3005 RMK A01 T00520022  RH  082%=      5-min Rain = 0
KLE1 211404Z 34007KT 05/02 A3005 RMK A01 T00520023  RH  082%=      5-min Rain = 0
KLE1 211405Z 34007KT 05/02 A3005 RMK A01 T00520023  RH  082%=      5-min Rain = 0
KLE1 211406Z 34006KT 05/02 A3005 RMK A01 T00520023  RH  081%=      5-min Rain = 0
KLE1 211407Z 32007KT 05/02 A3005 RMK A01 T00520023  RH  081%=      5-min Rain = 0
KLE1 211408Z 33007KT 05/02 A3005 RMK A01 T00530023  RH  081%=      5-min Rain = 0
KLE1 211409Z 32008KT 05/02 A3005 RMK A01 T00520023  RH  081%=      5-min Rain = 0
KLE1 211410Z 34008KT 05/02 A3005 RMK A01 T00530023  RH  081%=      5-min Rain = 0
KLE1 211411Z 33008KT 05/02 A3005 RMK A01 T00530023  RH  081%=      5-min Rain = 0
KLE1 211412Z 32008KT 05/02 A3005 RMK A01 T00530022  RH  081%=      5-min Rain = 0
KLE1 211413Z 33009KT 05/02 A3005 RMK A01 T00530024  RH  081%=      5-min Rain = 0
KLE1 211414Z 34009KT 05/02 A3005 RMK A01 T00530024  RH  081%=      5-min Rain = 0
KLE1 211415Z 34009KT 05/02 A3005 RMK A01 T00540024  RH  081%=      5-min Rain = 0
KLE1 211416Z 35009KT 05/03 A3005 RMK A01 T00540025  RH  081%=      5-min Rain = 0
KLE1 211417Z 34009KT 05/02 A3005 RMK A01 T00540024  RH  081%=      5-min Rain = 0
KLE1 211418Z 34010KT 05/02 A3005 RMK A01 T00540024  RH  081%=      5-min Rain = 0
KLE1 211419Z 33009KT 05/02 A3006 RMK A01 T00540023  RH  080%=      5-min Rain = 0
KLE1 211420Z 34007KT 05/02 A3006 RMK A01 T00540023  RH  080%=      5-min Rain = 0
KLE1 211421Z 34008KT 06/03 A3006 RMK A01 T00550025  RH  081%=      5-min Rain = 0
KLE1 211422Z 35009KT 06/02 A3006 RMK A01 T00550024  RH  080%=      5-min Rain = 0
KLE1 211423Z 34010KT 06/02 A3006 RMK A01 T00560024  RH  080%=      5-min Rain = 0
KLE1 211424Z 34011KT 06/02 A3006 RMK A01 T00560023  RH  079%=      5-min Rain = 0
KLE1 211425Z 34010KT 06/02 A3006 RMK A01 T00560023  RH  079%=      5-min Rain = 0
KLE1 211426Z 34008KT 06/02 A3006 RMK A01 T00560023  RH  080%=      5-min Rain = 0
KLE1 211427Z 34007KT 06/02 A3006 RMK A01 T00560023  RH  080%=      5-min Rain = 0
KLE1 211428Z 34007KT 06/02 A3006 RMK A01 T00560024  RH  080%=      5-min Rain = 0
KLE1 211429Z 34006KT 06/03 A3006 RMK A01 T00560025  RH  080%=      5-min Rain = 0
KLE1 211430Z 35007KT 06/03 A3006 RMK A01 T00570025  RH  080%=      5-min Rain = 0
KLE1 211431Z 00009KT 06/03 A3006 RMK A01 T00570025  RH  080%=      5-min Rain = 0
KLE1 211432Z 00009KT 06/02 A3006 RMK A01 T00580024  RH  079%=      5-min Rain = 0
KLE1 211433Z 00010KT 06/02 A3006 RMK A01 T00580023  RH  079%=      5-min Rain = 0
KLE1 211434Z 00009KT 06/02 A3007 RMK A01 T00570023  RH  078%=      5-min Rain = 0
KLE1 211435Z 36008KT 06/02 A3007 RMK A01 T00580023  RH  078%=      5-min Rain = 0
KLE1 211436Z 36006KT 06/02 A3007 RMK A01 T00580023  RH  079%=      5-min Rain = 0
KLE1 211437Z 01005KT 06/03 A3007 RMK A01 T00580025  RH  079%=      5-min Rain = 0
KLE1 211438Z 35005KT 06/03 A3007 RMK A01 T00590026  RH  079%=      5-min Rain = 0
KLE1 211439Z 36007KT 06/03 A3007 RMK A01 T00600026  RH  079%=      5-min Rain = 0
KLE1 211440Z 01008KT 06/02 A3007 RMK A01 T00600024  RH  078%=      5-min Rain = 0
KLE1 211441Z 00006KT 06/02 A3007 RMK A01 T00600023  RH  077%=      5-min Rain = 0
KLE1 211442Z 00006KT 06/02 A3007 RMK A01 T00590024  RH  078%=      5-min Rain = 0
KLE1 211443Z 00008KT 06/03 A3008 RMK A01 T00600025  RH  078%=      5-min Rain = 0
KLE1 211444Z 35007KT 06/03 A3008 RMK A01 T00600025  RH  078%=      5-min Rain = 0
KLE1 211445Z 35007KT 06/02 A3008 RMK A01 T00600024  RH  078%=      5-min Rain = 0
KLE1 211446Z 35007KT 06/02 A3008 RMK A01 T00590023  RH  078%=      5-min Rain = 0
KLE1 211447Z 35008KT 06/02 A3008 RMK A01 T00580023  RH  078%=      5-min Rain = 0
KLE1 211448Z 35006KT 06/02 A3008 RMK A01 T00580024  RH  079%=      5-min Rain = 0
KLE1 211449Z 36007KT 06/02 A3008 RMK A01 T00580024  RH  079%=      5-min Rain = 0
KLE1 211450Z 00007KT 06/02 A3008 RMK A01 T00580024  RH  079%=      5-min Rain = 0
KLE1 211451Z 36007KT 06/02 A3008 RMK A01 T00590024  RH  079%=      5-min Rain = 0
KLE1 211452Z 36006KT 06/02 A3008 RMK A01 T00590024  RH  078%=      5-min Rain = 0
KLE1 211453Z 00006KT 06/02 A3008 RMK A01 T00590024  RH  078%=      5-min Rain = 0
KLE1 211454Z 02005KT 06/02 A3008 RMK A01 T00590024  RH  078%=      5-min Rain = 0
KLE1 211455Z 02006KT 06/02 A3008 RMK A01 T00590023  RH  078%=      5-min Rain = 0
KLE1 211456Z 01005KT 06/02 A3008 RMK A01 T00600024  RH  078%=      5-min Rain = 0
KLE1 211457Z 36007KT 06/02 A3008 RMK A01 T00600024  RH  078%=      5-min Rain = 0
KLE1 211458Z 35007KT 06/02 A3008 RMK A01 T00610024  RH  077%=      5-min Rain = 0
KLE1 211459Z 34005KT 06/02 A3008 RMK A01 T00610023  RH  077%=      5-min Rain = 0
KLE1 211500Z 35005KT 06/02 A3008 RMK A01 T00610023  RH  076%=      5-min Rain = 0
KLE1 211501Z 36004KT 06/03 A3008 RMK A01 T00630025  RH  077%=      5-min Rain = 0
KLE1 211502Z 01005KT 06/03 A3008 RMK A01 T00630025  RH  077%=      5-min Rain = 0
KLE1 211503Z 02007KT 06/03 A3008 RMK A01 T00640027  RH  077%=      5-min Rain = 0
KLE1 211504Z 02005KT 06/03 A3008 RMK A01 T00640025  RH  076%=      5-min Rain = 0
KLE1 211505Z 01004KT 06/02 A3008 RMK A01 T00640024  RH  076%=      5-min Rain = 0
KLE1 211506Z 02005KT 06/03 A3008 RMK A01 T00640025  RH  076%=      5-min Rain = 0
KLE1 211507Z 01006KT 06/03 A3008 RMK A01 T00640025  RH  076%=      5-min Rain = 0
KLE1 211508Z 00005KT 06/03 A3008 RMK A01 T00640025  RH  076%=      5-min Rain = 0
KLE1 211509Z 00005KT 06/02 A3008 RMK A01 T00630024  RH  076%=      5-min Rain = 0
KLE1 211510Z 02004KT 06/02 A3008 RMK A01 T00630024  RH  076%=      5-min Rain = 0
KLE1 211511Z 01004KT 06/03 A3009 RMK A01 T00630025  RH  077%=      5-min Rain = 0
KLE1 211512Z 01005KT 06/03 A3009 RMK A01 T00630025  RH  076%=      5-min Rain = 0
KLE1 211513Z 01005KT 06/03 A3009 RMK A01 T00640025  RH  076%=      5-min Rain = 0
KLE1 211514Z 00004KT 06/03 A3009 RMK A01 T00640026  RH  077%=      5-min Rain = 0
KLE1 211515Z 01005KT 06/03 A3009 RMK A01 T00640026  RH  077%=      5-min Rain = 0
KLE1 211516Z 01004KT 07/03 A3009 RMK A01 T00650026  RH  076%=      5-min Rain = 0
KLE1 211517Z 02004KT 07/03 A3009 RMK A01 T00650026  RH  076%=      5-min Rain = 0
KLE1 211518Z 02005KT 07/03 A3009 RMK A01 T00650028  RH  077%=      5-min Rain = 0
KLE1 211519Z 03006KT 07/03 A3009 RMK A01 T00650026  RH  076%=      5-min Rain = 0
KLE1 211520Z 05007KT 07/03 A3009 RMK A01 T00650026  RH  076%=      5-min Rain = 0
KLE1 211521Z 05006KT 06/03 A3009 RMK A01 T00640026  RH  076%=      5-min Rain = 0
KLE1 211522Z 05005KT 06/03 A3009 RMK A01 T00640025  RH  076%=      5-min Rain = 0
KLE1 211523Z 05004KT 06/03 A3009 RMK A01 T00640026  RH  077%=      5-min Rain = 0
KLE1 211524Z 05004KT 06/03 A3009 RMK A01 T00640028  RH  078%=      5-min Rain = 0
KLE1 211525Z 05003KT 07/03 A3009 RMK A01 T00650027  RH  076%=      5-min Rain = 0
KLE1 211526Z 03006KT 07/03 A3009 RMK A01 T00650026  RH  076%=      5-min Rain = 0
KLE1 211527Z 03008KT 07/03 A3009 RMK A01 T00650026  RH  076%=      5-min Rain = 0
KLE1 211528Z 04006KT 07/03 A3009 RMK A01 T00660026  RH  076%=      5-min Rain = 0
KLE1 211529Z 03006KT 07/03 A3009 RMK A01 T00660025  RH  075%=      5-min Rain = 0
KLE1 211530Z 03008KT 07/03 A3009 RMK A01 T00660027  RH  076%=      5-min Rain = 0
KLE1 211531Z 03009KT 07/03 A3009 RMK A01 T00670027  RH  076%=      5-min Rain = 0
KLE1 211532Z 03010KT 07/03 A3009 RMK A01 T00670027  RH  076%=      5-min Rain = 0
KLE1 211533Z 04009KT 07/03 A3009 RMK A01 T00670026  RH  075%=      5-min Rain = 0
KLE1 211534Z 04008KT 07/03 A3009 RMK A01 T00670026  RH  075%=      5-min Rain = 0
KLE1 211535Z 03009KT 07/03 A3009 RMK A01 T00660026  RH  076%=      5-min Rain = 0
KLE1 211536Z 02007KT 07/03 A301 RMK A01 T00660026  RH  076%=      5-min Rain = 0
KLE1 211537Z 03007KT 07/03 A301 RMK A01 T00660026  RH  075%=      5-min Rain = 0
KLE1 211538Z 03007KT 07/03 A301 RMK A01 T00660027  RH  076%=      5-min Rain = 0
KLE1 211539Z 02007KT 07/03 A301 RMK A01 T00670027  RH  076%=      5-min Rain = 0
KLE1 211540Z 02006KT 07/03 A301 RMK A01 T00670025  RH  074%=      5-min Rain = 0
KLE1 211541Z 02006KT 07/02 A301 RMK A01 T00660024  RH  075%=      5-min Rain = 0
KLE1 211542Z 02007KT 07/03 A301 RMK A01 T00650025  RH  075%=      5-min Rain = 0
KLE1 211543Z 03007KT 07/03 A301 RMK A01 T00660026  RH  076%=      5-min Rain = 0
KLE1 211544Z 03007KT 07/03 A3009 RMK A01 T00660026  RH  076%=      5-min Rain = 0
KLE1 211545Z 01006KT 07/03 A3009 RMK A01 T00660026  RH  075%=      5-min Rain = 0
KLE1 211546Z 01005KT 07/03 A3009 RMK A01 T00670026  RH  075%=      5-min Rain = 0
KLE1 211547Z 00007KT 07/03 A3009 RMK A01 T00670026  RH  075%=      5-min Rain = 0
KLE1 211548Z 01009KT 07/03 A3009 RMK A01 T00670027  RH  076%=      5-min Rain = 0
KLE1 211549Z 02009KT 07/03 A3009 RMK A01 T00680029  RH  076%=      5-min Rain = 0
KLE1 211550Z 02007KT 07/03 A3009 RMK A01 T00700027  RH  074%=      5-min Rain = 0
KLE1 211551Z 01007KT 07/03 A3009 RMK A01 T00700028  RH  075%=      5-min Rain = 0
KLE1 211552Z 00008KT 07/03 A3009 RMK A01 T00720032  RH  075%=      5-min Rain = 0
KLE1 211553Z 00010KT 07/03 A3009 RMK A01 T00740031  RH  074%=      5-min Rain = 0
KLE1 211554Z 00009KT 07/03 A3009 RMK A01 T00740029  RH  073%=      5-min Rain = 0
KLE1 211555Z 00011KT 07/03 A3009 RMK A01 T00740031  RH  074%=      5-min Rain = 0
KLE1 211556Z 00012KT 08/04 A3008 RMK A01 T00770035  RH  075%=      5-min Rain = 0
KLE1 211557Z 00012KT 08/04 A3008 RMK A01 T00790035  RH  074%=      5-min Rain = 0
KLE1 211558Z 00014KT 08/03 A3008 RMK A01 T00790034  RH  073%=      5-min Rain = 0
KLE1 211559Z 01015KT 08/03 A3007 RMK A01 T00760029  RH  072%=      5-min Rain = 0
KLE1 211600Z 00013KT 07/03 A3007 RMK A01 T00730027  RH  073%=      5-min Rain = 0
KLE1 211601Z 36015KT 07/03 A3007 RMK A01 T00710029  RH  075%=      5-min Rain = 0
KLE1 211602Z 35015KT 07/03 A3007 RMK A01 T00690027  RH  074%=      5-min Rain = 0
KLE1 211603Z 01013KT 07/03 A3007 RMK A01 T00670026  RH  075%=      5-min Rain = 0
KLE1 211604Z 01013KT 07/03 A3007 RMK A01 T00660028  RH  077%=      5-min Rain = 0
KLE1 211605Z 00014KT 07/03 A3007 RMK A01 T00660028  RH  076%=      5-min Rain = 0
KLE1 211606Z 36016KT 07/03 A3006 RMK A01 T00680030  RH  077%=      5-min Rain = 0
KLE1 211607Z 35013KT 07/03 A3006 RMK A01 T00710031  RH  076%=      5-min Rain = 0
KLE1 211608Z 35014KT 07/03 A3006 RMK A01 T00740033  RH  075%=      5-min Rain = 0
KLE1 211609Z 35014KT 08/03 A3006 RMK A01 T00750032  RH  074%=      5-min Rain = 0
KLE1 211610Z 36015KT 08/03 A3006 RMK A01 T00760031  RH  073%=      5-min Rain = 0
KLE1 211611Z 01012KT 08/03 A3007 RMK A01 T00770033  RH  074%=      5-min Rain = 0
KLE1 211612Z 00012KT 08/03 A3007 RMK A01 T00780034  RH  073%=      5-min Rain = 0
KLE1 211613Z 01011KT 08/03 A3008 RMK A01 T00780033  RH  073%=      5-min Rain = 0
KLE1 211614Z 02010KT 08/03 A3008 RMK A01 T00770031  RH  073%=      5-min Rain = 0
KLE1 211615Z 01010KT 08/03 A3008 RMK A01 T00750029  RH  073%=      5-min Rain = 0
KLE1 211616Z 00010KT 07/03 A3008 RMK A01 T00740029  RH  073%=      5-min Rain = 0
KLE1 211617Z 01011KT 07/03 A3007 RMK A01 T00730029  RH  074%=      5-min Rain = 0
KLE1 211618Z 01011KT 07/03 A3007 RMK A01 T00730030  RH  074%=      5-min Rain = 0
KLE1 211619Z 01010KT 07/03 A3007 RMK A01 T00740032  RH  074%=      5-min Rain = 0
KLE1 211620Z 01011KT 08/03 A3007 RMK A01 T00760032  RH  074%=      5-min Rain = 0
KLE1 211621Z 01011KT 08/03 A3007 RMK A01 T00770031  RH  072%=      5-min Rain = 0
KLE1 211622Z 02011KT 08/03 A3007 RMK A01 T00770032  RH  073%=      5-min Rain = 0
KLE1 211623Z 01008KT 08/03 A3008 RMK A01 T00780031  RH  072%=      5-min Rain = 0
KLE1 211624Z 02008KT 08/03 A3008 RMK A01 T00780032  RH  072%=      5-min Rain = 0
KLE1 211625Z 02009KT 08/03 A3008 RMK A01 T00790033  RH  072%=      5-min Rain = 0
KLE1 211626Z 01009KT 08/03 A3008 RMK A01 T00800031  RH  072%=      5-min Rain = 0
KLE1 211627Z 01008KT 08/03 A3008 RMK A01 T00790030  RH  071%=      5-min Rain = 0
KLE1 211628Z 03011KT 08/03 A3008 RMK A01 T00790032  RH  073%=      5-min Rain = 0
KLE1 211629Z 03009KT 08/03 A3008 RMK A01 T00800030  RH  071%=      5-min Rain = 0
KLE1 211630Z 03009KT 08/03 A3008 RMK A01 T00800032  RH  072%=      5-min Rain = 0
KLE1 211631Z 02009KT 08/03 A3008 RMK A01 T00800032  RH  072%=      5-min Rain = 0
KLE1 211632Z 03011KT 08/03 A3008 RMK A01 T00800032  RH  071%=      5-min Rain = 0
KLE1 211633Z 03010KT 08/03 A3008 RMK A01 T00790030  RH  071%=      5-min Rain = 0
KLE1 211634Z 03008KT 08/03 A3009 RMK A01 T00770026  RH  070%=      5-min Rain = 0
KLE1 211635Z 03006KT 07/03 A3009 RMK A01 T00730025  RH  071%=      5-min Rain = 0
KLE1 211636Z 00005KT 07/03 A3009 RMK A01 T00720026  RH  073%=      5-min Rain = 0
KLE1 211637Z 00010KT 07/03 A3009 RMK A01 T00720027  RH  073%=      5-min Rain = 0
KLE1 211638Z 03010KT 07/03 A3009 RMK A01 T00720028  RH  074%=      5-min Rain = 0
KLE1 211639Z 02010KT 07/03 A3009 RMK A01 T00720029  RH  074%=      5-min Rain = 0
KLE1 211640Z 02009KT 07/03 A3009 RMK A01 T00730029  RH  073%=      5-min Rain = 0
KLE1 211641Z 02011KT 07/03 A3008 RMK A01 T00740031  RH  074%=      5-min Rain = 0
KLE1 211642Z 02011KT 08/03 A3008 RMK A01 T00750029  RH  073%=      5-min Rain = 0
KLE1 211643Z 02010KT 07/03 A3008 RMK A01 T00740029  RH  073%=      5-min Rain = 0
KLE1 211644Z 01009KT 08/03 A3009 RMK A01 T00750029  RH  072%=      5-min Rain = 0
KLE1 211645Z 01010KT 08/03 A3009 RMK A01 T00750028  RH  072%=      5-min Rain = 0
KLE1 211646Z 02007KT 07/03 A3009 RMK A01 T00740028  RH  072%=      5-min Rain = 0
KLE1 211647Z 01008KT 07/03 A3009 RMK A01 T00740029  RH  073%=      5-min Rain = 0
KLE1 211648Z 02010KT 08/03 A3008 RMK A01 T00760029  RH  072%=      5-min Rain = 0
KLE1 211649Z 02008KT 08/03 A3008 RMK A01 T00760030  RH  072%=      5-min Rain = 0
KLE1 211650Z 03009KT 08/03 A3008 RMK A01 T00780033  RH  073%=      5-min Rain = 0
KLE1 211651Z 01008KT 08/03 A3007 RMK A01 T00800033  RH  072%=      5-min Rain = 0
KLE1 211652Z 36010KT 08/03 A3007 RMK A01 T00810034  RH  072%=      5-min Rain = 0
KLE1 211653Z 00010KT 08/03 A3007 RMK A01 T00820033  RH  071%=      5-min Rain = 0
KLE1 211654Z 00010KT 08/04 A3007 RMK A01 T00820035  RH  072%=      5-min Rain = 0
KLE1 211655Z 01012KT 08/04 A3007 RMK A01 T00840035  RH  071%=      5-min Rain = 0
KLE1 211656Z 00011KT 08/03 A3007 RMK A01 T00830032  RH  070%=      5-min Rain = 0
KLE1 211657Z 01010KT 08/03 A3007 RMK A01 T00800029  RH  070%=      5-min Rain = 0
KLE1 211658Z 00011KT 08/03 A3007 RMK A01 T00790030  RH  071%=      5-min Rain = 0
KLE1 211659Z 36012KT 08/03 A3007 RMK A01 T00780030  RH  072%=      5-min Rain = 0
KLE1 211700Z 35013KT 08/03 A3007 RMK A01 T00780029  RH  071%=      5-min Rain = 0
KLE1 211701Z 36012KT 08/03 A3007 RMK A01 T00770029  RH  071%=      5-min Rain = 0
KLE1 211702Z 01012KT 08/03 A3006 RMK A01 T00770030  RH  072%=      5-min Rain = 0
KLE1 211703Z 00012KT 08/03 A3006 RMK A01 T00780032  RH  073%=      5-min Rain = 0
KLE1 211704Z 35012KT 08/03 A3006 RMK A01 T00780031  RH  072%=      5-min Rain = 0
KLE1 211705Z 35012KT 08/03 A3006 RMK A01 T00780029  RH  071%=      5-min Rain = 0
KLE1 211706Z 36012KT 08/03 A3006 RMK A01 T00770028  RH  071%=      5-min Rain = 0
KLE1 211707Z 36010KT 08/03 A3006 RMK A01 T00780031  RH  073%=      5-min Rain = 0
KLE1 211708Z 36009G15KT 08/03 A3007 RMK A01 T00790034  RH  073%=      5-min Rain = 0
KLE1 211709Z 03008KT 08/03 A3007 RMK A01 T00810034  RH  072%=      5-min Rain = 0
KLE1 211710Z 01011KT 08/03 A3007 RMK A01 T00820031  RH  070%=      5-min Rain = 0
KLE1 211711Z 01010KT 08/03 A3007 RMK A01 T00810029  RH  070%=      5-min Rain = 0
KLE1 211712Z 36010KT 08/03 A3007 RMK A01 T00800031  RH  071%=      5-min Rain = 0
KLE1 211713Z 36013KT 08/03 A3007 RMK A01 T00810031  RH  071%=      5-min Rain = 0
KLE1 211714Z 35013KT 08/03 A3007 RMK A01 T00800030  RH  071%=      5-min Rain = 0
KLE1 211715Z 35012KT 08/03 A3007 RMK A01 T00800030  RH  071%=      5-min Rain = 0
KLE1 211716Z 00011KT 08/03 A3007 RMK A01 T00800032  RH  072%=      5-min Rain = 0
KLE1 211717Z 36013KT 08/03 A3007 RMK A01 T00810032  RH  071%=      5-min Rain = 0
KLE1 211718Z 01013KT 08/03 A3006 RMK A01 T00800031  RH  071%=      5-min Rain = 0
KLE1 211719Z 01012KT 08/03 A3006 RMK A01 T00800031  RH  071%=      5-min Rain = 0
KLE1 211720Z 00011KT 08/03 A3006 RMK A01 T00790030  RH  071%=      5-min Rain = 0
KLE1 211721Z 00011KT 08/03 A3006 RMK A01 T00790029  RH  071%=      5-min Rain = 0
KLE1 211722Z 01010KT 08/03 A3006 RMK A01 T00790030  RH  071%=      5-min Rain = 0
KLE1 211723Z 00011KT 08/03 A3005 RMK A01 T00780029  RH  071%=      5-min Rain = 0
KLE1 211724Z 36011KT 08/03 A3005 RMK A01 T00790030  RH  071%=      5-min Rain = 0
KLE1 211725Z 35015KT 08/03 A3005 RMK A01 T00800031  RH  072%=      5-min Rain = 0
KLE1 211726Z 36015KT 08/03 A3005 RMK A01 T00800030  RH  071%=      5-min Rain = 0
KLE1 211727Z 01014KT 08/03 A3005 RMK A01 T00800030  RH  071%=      5-min Rain = 0
KLE1 211728Z 01013KT 08/03 A3005 RMK A01 T00810030  RH  070%=      5-min Rain = 0
KLE1 211729Z 02011KT 08/03 A3005 RMK A01 T00810031  RH  070%=      5-min Rain = 0
KLE1 211730Z 01007KT 08/03 A3006 RMK A01 T00820032  RH  071%=      5-min Rain = 0
KLE1 211731Z 01008KT 08/03 A3006 RMK A01 T00830033  RH  071%=      5-min Rain = 0
KLE1 211732Z 36007KT 08/03 A3006 RMK A01 T00840034  RH  071%=      5-min Rain = 0
KLE1 211733Z 34008KT 09/04 A3006 RMK A01 T00860037  RH  071%=      5-min Rain = 0
KLE1 211734Z 35011KT 09/03 A3006 RMK A01 T00860034  RH  070%=      5-min Rain = 0
KLE1 211735Z 34012KT 09/03 A3005 RMK A01 T00850032  RH  069%=      5-min Rain = 0
KLE1 211736Z 35010KT 08/03 A3005 RMK A01 T00840032  RH  070%=      5-min Rain = 0
KLE1 211737Z 35011KT 09/04 A3005 RMK A01 T00850035  RH  071%=      5-min Rain = 0
KLE1 211738Z 35010KT 08/03 A3005 RMK A01 T00840032  RH  070%=      5-min Rain = 0
KLE1 211739Z 36008KT 08/03 A3005 RMK A01 T00830031  RH  070%=      5-min Rain = 0
KLE1 211740Z 34008KT 08/03 A3005 RMK A01 T00830033  RH  071%=      5-min Rain = 0
KLE1 211741Z 36010KT 08/04 A3005 RMK A01 T00840036  RH  072%=      5-min Rain = 0
KLE1 211742Z 35013KT 09/03 A3004 RMK A01 T00850034  RH  070%=      5-min Rain = 0
KLE1 211743Z 00012KT 09/03 A3005 RMK A01 T00850032  RH  070%=      5-min Rain = 0
KLE1 211744Z 01011KT 09/03 A3005 RMK A01 T00850033  RH  070%=      5-min Rain = 0
KLE1 211745Z 02009KT 08/03 A3005 RMK A01 T00840032  RH  070%=      5-min Rain = 0
KLE1 211746Z 01011KT 09/03 A3005 RMK A01 T00850033  RH  070%=      5-min Rain = 0
KLE1 211747Z 01010KT 09/03 A3004 RMK A01 T00850031  RH  069%=      5-min Rain = 0
KLE1 211748Z 02009KT 09/03 A3004 RMK A01 T00850031  RH  069%=      5-min Rain = 0
KLE1 211749Z 01010KT 08/03 A3004 RMK A01 T00840030  RH  069%=      5-min Rain = 0
KLE1 211750Z 02012KT 08/03 A3004 RMK A01 T00830029  RH  069%=      5-min Rain = 0
KLE1 211751Z 02010KT 08/03 A3004 RMK A01 T00820030  RH  070%=      5-min Rain = 0
KLE1 211752Z 02010KT 08/03 A3004 RMK A01 T00820030  RH  070%=      5-min Rain = 0
KLE1 211753Z 01010KT 08/03 A3004 RMK A01 T00820029  RH  069%=      5-min Rain = 0
KLE1 211754Z 02010KT 08/03 A3004 RMK A01 T00820031  RH  070%=      5-min Rain = 0
KLE1 211755Z 02010KT 08/03 A3004 RMK A01 T00830031  RH  070%=      5-min Rain = 0
KLE1 211756Z 01009KT 08/03 A3004 RMK A01 T00820029  RH  069%=      5-min Rain = 0
KLE1 211757Z 01009KT 08/03 A3004 RMK A01 T00820030  RH  069%=      5-min Rain = 0
KLE1 211758Z 36008KT 08/03 A3004 RMK A01 T00830031  RH  070%=      5-min Rain = 0
KLE1 211759Z 35009KT 08/03 A3004 RMK A01 T00840033  RH  070%=      5-min Rain = 0
KLE1 211800Z 35011KT 09/03 A3004 RMK A01 T00850032  RH  070%=      5-min Rain = 0
KLE1 211801Z 36012KT 09/03 A3004 RMK A01 T00850031  RH  069%=      5-min Rain = 0
KLE1 211802Z 00009KT 08/03 A3004 RMK A01 T00840031  RH  069%=      5-min Rain = 0
KLE1 211803Z 00007KT 09/03 A3004 RMK A01 T00850031  RH  069%=      5-min Rain = 0
KLE1 211804Z 36006KT 08/03 A3004 RMK A01 T00840030  RH  069%=      5-min Rain = 0
KLE1 211805Z 03007KT 08/03 A3005 RMK A01 T00840031  RH  069%=      5-min Rain = 0
KLE1 211806Z 04005KT 08/03 A3005 RMK A01 T00840030  RH  069%=      5-min Rain = 0
KLE1 211807Z 02006KT 08/03 A3004 RMK A01 T00830030  RH  069%=      5-min Rain = 0
KLE1 211808Z 03007KT 08/04 A3004 RMK A01 T00830036  RH  072%=      5-min Rain = 0
KLE1 211809Z 03008KT 08/04 A3003 RMK A01 T00830040  RH  075%=      5-min Rain = 0
KLE1 211810Z 01006KT 08/04 A3003 RMK A01 T00840043  RH  075%=      5-min Rain = 0
KLE1 211811Z 01005KT 09/04 A3004 RMK A01 T00850041  RH  074%=      5-min Rain = 0
KLE1 211812Z 02006KT 09/04 A3004 RMK A01 T00850039  RH  073%=      5-min Rain = 0
KLE1 211813Z 00007KT 09/04 A3004 RMK A01 T00850040  RH  073%=      5-min Rain = 0
KLE1 211814Z 35007KT 09/04 A3004 RMK A01 T00850040  RH  073%=      5-min Rain = 0
KLE1 211815Z 36007KT 09/04 A3004 RMK A01 T00860040  RH  073%=      5-min Rain = 0
KLE1 211816Z 36008KT 09/04 A3004 RMK A01 T00860039  RH  072%=      5-min Rain = 0
KLE1 211817Z 35007KT 09/04 A3004 RMK A01 T00850037  RH  072%=      5-min Rain = 0
KLE1 211818Z 35008KT 09/04 A3004 RMK A01 T00850042  RH  074%=      5-min Rain = 0
KLE1 211819Z 35010KT 09/04 A3004 RMK A01 T00850040  RH  073%=      5-min Rain = 0
KLE1 211820Z 36009KT 09/04 A3004 RMK A01 T00860040  RH  073%=      5-min Rain = 0
KLE1 211821Z 36011KT 09/04 A3003 RMK A01 T00860037  RH  071%=      5-min Rain = 0
KLE1 211822Z 36012KT 09/04 A3003 RMK A01 T00870036  RH  071%=      5-min Rain = 0
KLE1 211823Z 36011KT 09/04 A3003 RMK A01 T00860037  RH  071%=      5-min Rain = 0
KLE1 211824Z 00010KT 09/04 A3004 RMK A01 T00870037  RH  071%=      5-min Rain = 0
KLE1 211825Z 01009KT 09/04 A3004 RMK A01 T00870037  RH  071%=      5-min Rain = 0
KLE1 211826Z 00008KT 09/04 A3004 RMK A01 T00880035  RH  069%=      5-min Rain = 0
KLE1 211827Z 01008KT 09/04 A3004 RMK A01 T00870035  RH  070%=      5-min Rain = 0
KLE1 211828Z 02008KT 09/04 A3004 RMK A01 T00870035  RH  070%=      5-min Rain = 0
KLE1 211829Z 02006KT 09/04 A3004 RMK A01 T00870035  RH  070%=      5-min Rain = 0
KLE1 211830Z 02006KT 09/04 A3004 RMK A01 T00870037  RH  071%=      5-min Rain = 0
KLE1 211831Z 01008KT 09/04 A3003 RMK A01 T00880037  RH  070%=      5-min Rain = 0
KLE1 211832Z 01010KT 09/04 A3003 RMK A01 T00880035  RH  069%=      5-min Rain = 0
KLE1 211833Z 01010KT 09/03 A3003 RMK A01 T00880033  RH  068%=      5-min Rain = 0
KLE1 211834Z 01009KT 09/03 A3003 RMK A01 T00880033  RH  069%=      5-min Rain = 0
KLE1 211835Z 01010KT 09/03 A3003 RMK A01 T00880032  RH  068%=      5-min Rain = 0
KLE1 211836Z 02010KT 09/03 A3002 RMK A01 T00880032  RH  068%=      5-min Rain = 0
KLE1 211837Z 02011KT 09/03 A3002 RMK A01 T00870028  RH  066%=      5-min Rain = 0
KLE1 211838Z 02009KT 09/03 A3002 RMK A01 T00870027  RH  066%=      5-min Rain = 0
KLE1 211839Z 02007KT 09/03 A3002 RMK A01 T00860026  RH  066%=      5-min Rain = 0
KLE1 211840Z 03007KT 09/03 A3003 RMK A01 T00860028  RH  067%=      5-min Rain = 0
KLE1 211841Z 01007KT 09/03 A3003 RMK A01 T00860028  RH  067%=      5-min Rain = 0
KLE1 211842Z 01008KT 09/03 A3003 RMK A01 T00870029  RH  067%=      5-min Rain = 0
KLE1 211843Z 00008KT 09/03 A3002 RMK A01 T00870030  RH  067%=      5-min Rain = 0
KLE1 211844Z 36009KT 09/03 A3002 RMK A01 T00880031  RH  067%=      5-min Rain = 0
KLE1 211845Z 00009KT 09/03 A3002 RMK A01 T00890032  RH  067%=      5-min Rain = 0
KLE1 211846Z 01010KT 09/03 A3002 RMK A01 T00900032  RH  067%=      5-min Rain = 0
KLE1 211847Z 02009KT 09/03 A3002 RMK A01 T00890032  RH  067%=      5-min Rain = 0
KLE1 211848Z 01009KT 09/03 A3002 RMK A01 T00890031  RH  067%=      5-min Rain = 0
KLE1 211849Z 01011KT 09/03 A3002 RMK A01 T00880031  RH  067%=      5-min Rain = 0
KLE1 211850Z 01011KT 09/03 A3002 RMK A01 T00880030  RH  067%=      5-min Rain = 0
KLE1 211851Z 01010KT 09/03 A3002 RMK A01 T00870028  RH  067%=      5-min Rain = 0
KLE1 211852Z 02010KT 09/03 A3002 RMK A01 T00860029  RH  067%=      5-min Rain = 0
KLE1 211853Z 00010KT 09/03 A3002 RMK A01 T00860030  RH  068%=      5-min Rain = 0
KLE1 211854Z 00012KT 09/03 A3002 RMK A01 T00870028  RH  067%=      5-min Rain = 0
KLE1 211855Z 00011KT 09/03 A3002 RMK A01 T00870027  RH  066%=      5-min Rain = 0
KLE1 211856Z 01012KT 09/03 A3001 RMK A01 T00870028  RH  067%=      5-min Rain = 0
KLE1 211857Z 00011KT 09/03 A3001 RMK A01 T00870030  RH  067%=      5-min Rain = 0
KLE1 211858Z 01012KT 09/03 A3001 RMK A01 T00870029  RH  067%=      5-min Rain = 0
KLE1 211859Z 01010KT 09/03 A3001 RMK A01 T00870028  RH  067%=      5-min Rain = 0
KLE1 211900Z 00010KT 09/03 A3001 RMK A01 T00870029  RH  067%=      5-min Rain = 0
KLE1 211901Z 00011KT 09/03 A3001 RMK A01 T00870028  RH  067%=      5-min Rain = 0
KLE1 211902Z 35010KT 09/03 A3001 RMK A01 T00870030  RH  067%=      5-min Rain = 0
KLE1 211903Z 01009KT 09/03 A3002 RMK A01 T00870031  RH  068%=      5-min Rain = 0
KLE1 211904Z 01010KT 09/03 A3002 RMK A01 T00880031  RH  068%=      5-min Rain = 0
KLE1 211905Z 01010KT 09/03 A3002 RMK A01 T00890031  RH  067%=      5-min Rain = 0
KLE1 211906Z 01011KT 09/03 A3001 RMK A01 T00890031  RH  067%=      5-min Rain = 0
KLE1 211907Z 01011KT 09/03 A3001 RMK A01 T00890029  RH  066%=      5-min Rain = 0
KLE1 211908Z 01010KT 09/03 A3001 RMK A01 T00880030  RH  067%=      5-min Rain = 0
KLE1 211909Z 01009KT 09/03 A3001 RMK A01 T00870030  RH  068%=      5-min Rain = 0
KLE1 211910Z 00010KT 09/03 A3001 RMK A01 T00870033  RH  068%=      5-min Rain = 0
KLE1 211911Z 36011KT 09/03 A3001 RMK A01 T00880032  RH  068%=      5-min Rain = 0
KLE1 211912Z 01011KT 09/03 A3001 RMK A01 T00880032  RH  068%=      5-min Rain = 0
KLE1 211913Z 01011KT 09/03 A3001 RMK A01 T00870033  RH  068%=      5-min Rain = 0
KLE1 211914Z 01013KT 09/03 A3001 RMK A01 T00880031  RH  067%=      5-min Rain = 0
KLE1 211915Z 00011KT 09/03 A3001 RMK A01 T00870030  RH  067%=      5-min Rain = 0
KLE1 211916Z 01011KT 09/03 A3001 RMK A01 T00870030  RH  068%=      5-min Rain = 0
KLE1 211917Z 36011KT 09/03 A3001 RMK A01 T00870032  RH  068%=      5-min Rain = 0
KLE1 211918Z 00011KT 09/03 A3001 RMK A01 T00870031  RH  068%=      5-min Rain = 0
KLE1 211919Z 00010KT 09/03 A3001 RMK A01 T00850030  RH  068%=      5-min Rain = 0
KLE1 211920Z 00010KT 09/03 A3001 RMK A01 T00850031  RH  069%=      5-min Rain = 0
KLE1 211921Z 00010KT 09/03 A3001 RMK A01 T00850031  RH  069%=      5-min Rain = 0
KLE1 211922Z 01011KT 09/03 A3001 RMK A01 T00850031  RH  069%=      5-min Rain = 0
KLE1 211923Z 00011KT 09/03 A3001 RMK A01 T00850031  RH  069%=      5-min Rain = 0
KLE1 211924Z 00011KT 08/03 A3001 RMK A01 T00840031  RH  069%=      5-min Rain = 0
KLE1 211925Z 00013KT 08/03 A3001 RMK A01 T00840031  RH  069%=      5-min Rain = 0
KLE1 211926Z 01011KT 08/03 A30 RMK A01 T00840031  RH  069%=      5-min Rain = 0
KLE1 211927Z 02012KT 08/03 A30 RMK A01 T00840031  RH  069%=      5-min Rain = 0
KLE1 211928Z 01010KT 09/03 A30 RMK A01 T00850032  RH  069%=      5-min Rain = 0
KLE1 211929Z 01012KT 09/03 A30 RMK A01 T00860033  RH  069%=      5-min Rain = 0
KLE1 211930Z 01011KT 09/03 A30 RMK A01 T00860031  RH  068%=      5-min Rain = 0
KLE1 211931Z 01010KT 09/03 A30 RMK A01 T00850031  RH  069%=      5-min Rain = 0
KLE1 211932Z 01011KT 09/03 A30 RMK A01 T00850033  RH  069%=      5-min Rain = 0
KLE1 211933Z 01011KT 09/03 A30 RMK A01 T00850031  RH  069%=      5-min Rain = 0
KLE1 211934Z 02011KT 09/03 A30 RMK A01 T00850031  RH  069%=      5-min Rain = 0
KLE1 211935Z 01008KT 09/03 A30 RMK A01 T00850034  RH  070%=      5-min Rain = 0
KLE1 211936Z 00009KT 09/04 A30 RMK A01 T00860036  RH  071%=      5-min Rain = 0
KLE1 211937Z 36011KT 09/04 A30 RMK A01 T00860035  RH  070%=      5-min Rain = 0
KLE1 211938Z 36011KT 09/03 A30 RMK A01 T00860032  RH  068%=      5-min Rain = 0
KLE1 211939Z 36012KT 09/03 A30 RMK A01 T00860033  RH  069%=      5-min Rain = 0
KLE1 211940Z 36012KT 09/03 A30 RMK A01 T00850033  RH  070%=      5-min Rain = 0
KLE1 211941Z 00013KT 09/03 A30 RMK A01 T00850033  RH  070%=      5-min Rain = 0
KLE1 211942Z 01013KT 08/03 A30 RMK A01 T00840033  RH  070%=      5-min Rain = 0
KLE1 211943Z 00012KT 08/03 A30 RMK A01 T00840034  RH  071%=      5-min Rain = 0
KLE1 211944Z 01011KT 08/03 A30 RMK A01 T00840033  RH  070%=      5-min Rain = 0
KLE1 211945Z 36010KT 08/04 A30 RMK A01 T00840035  RH  071%=      5-min Rain = 0
KLE1 211946Z 35013KT 08/04 A30 RMK A01 T00840035  RH  071%=      5-min Rain = 0
KLE1 211947Z 00012KT 08/03 A30 RMK A01 T00840034  RH  071%=      5-min Rain = 0
KLE1 211948Z 36010KT 08/04 A30 RMK A01 T00840035  RH  071%=      5-min Rain = 0
KLE1 211949Z 01011KT 08/04 A30 RMK A01 T00830036  RH  072%=      5-min Rain = 0
KLE1 211950Z 01011KT 08/03 A30 RMK A01 T00830033  RH  071%=      5-min Rain = 0
KLE1 211951Z 01010KT 08/03 A30 RMK A01 T00830033  RH  071%=      5-min Rain = 0
KLE1 211952Z 01008KT 08/04 A2999 RMK A01 T00830036  RH  072%=      5-min Rain = 0
KLE1 211953Z 01011KT 08/04 A2999 RMK A01 T00840039  RH  074%=      5-min Rain = 0
KLE1 211954Z 01013KT 09/04 A2999 RMK A01 T00850037  RH  072%=      5-min Rain = 0
KLE1 211955Z 01014KT 09/03 A2999 RMK A01 T00850033  RH  070%=      5-min Rain = 0
KLE1 211956Z 01013KT 08/03 A30 RMK A01 T00840031  RH  069%=      5-min Rain = 0
KLE1 211957Z 00013KT 08/03 A30 RMK A01 T00840031  RH  070%=      5-min Rain = 0
KLE1 211958Z 00013KT 08/03 A30 RMK A01 T00840031  RH  069%=      5-min Rain = 0
KLE1 211959Z 00014KT 08/03 A30 RMK A01 T00840030  RH  069%=      5-min Rain = 0
KLE1 212000Z 00012KT 08/03 A30 RMK A01 T00830030  RH  069%=      5-min Rain = 0
KLE1 212001Z 00013KT 08/03 A30 RMK A01 T00830030  RH  069%=      5-min Rain = 0
KLE1 212002Z 00012KT 08/03 A30 RMK A01 T00830029  RH  069%=      5-min Rain = 0
KLE1 212003Z 36011KT 08/03 A30 RMK A01 T00830029  RH  069%=      5-min Rain = 0
KLE1 212004Z 00012KT 08/03 A30 RMK A01 T00830029  RH  069%=      5-min Rain = 0
KLE1 212005Z 00011KT 08/03 A30 RMK A01 T00830030  RH  070%=      5-min Rain = 0
KLE1 212006Z 00010KT 08/03 A30 RMK A01 T00830031  RH  070%=      5-min Rain = 0
KLE1 212007Z 01010KT 08/03 A30 RMK A01 T00830032  RH  070%=      5-min Rain = 0
KLE1 212008Z 00012KT 08/03 A30 RMK A01 T00830031  RH  070%=      5-min Rain = 0
KLE1 212009Z 01012KT 08/03 A30 RMK A01 T00830029  RH  069%=      5-min Rain = 0
KLE1 212010Z 01011KT 08/03 A30 RMK A01 T00830029  RH  069%=      5-min Rain = 0
KLE1 212011Z 01012KT 08/03 A30 RMK A01 T00830027  RH  068%=      5-min Rain = 0
KLE1 212012Z 01010KT 08/03 A30 RMK A01 T00830029  RH  069%=      5-min Rain = 0
KLE1 212013Z 01009KT 08/03 A30 RMK A01 T00830029  RH  069%=      5-min Rain = 0
KLE1 212014Z 02009KT 08/03 A30 RMK A01 T00830029  RH  069%=      5-min Rain = 0
KLE1 212015Z 03008KT 08/03 A30 RMK A01 T00830030  RH  070%=      5-min Rain = 0
KLE1 212016Z 02010KT 08/03 A30 RMK A01 T00830030  RH  069%=      5-min Rain = 0
KLE1 212017Z 02011KT 08/03 A30 RMK A01 T00830028  RH  068%=      5-min Rain = 0
KLE1 212018Z 02009KT 08/03 A30 RMK A01 T00830028  RH  068%=      5-min Rain = 0
KLE1 212019Z 02010KT 08/03 A30 RMK A01 T00830028  RH  068%=      5-min Rain = 0
KLE1 212020Z 03010KT 08/03 A30 RMK A01 T00830028  RH  068%=      5-min Rain = 0
KLE1 212021Z 03011KT 08/03 A30 RMK A01 T00830028  RH  068%=      5-min Rain = 0
KLE1 212022Z 03011KT 08/03 A30 RMK A01 T00830028  RH  068%=      5-min Rain = 0
KLE1 212023Z 03011KT 08/03 A30 RMK A01 T00820028  RH  069%=      5-min Rain = 0
KLE1 212024Z 02009KT 08/03 A30 RMK A01 T00830028  RH  069%=      5-min Rain = 0
KLE1 212025Z 02008KT 08/03 A30 RMK A01 T00820030  RH  069%=      5-min Rain = 0
KLE1 212026Z 02010KT 08/03 A30 RMK A01 T00830030  RH  069%=      5-min Rain = 0
KLE1 212027Z 02010KT 08/03 A2999 RMK A01 T00830030  RH  069%=      5-min Rain = 0
KLE1 212028Z 03008KT 08/03 A2999 RMK A01 T00830031  RH  070%=      5-min Rain = 0
KLE1 212029Z 03011KT 08/03 A2999 RMK A01 T00830032  RH  070%=      5-min Rain = 0
KLE1 212030Z 03011KT 08/03 A2999 RMK A01 T00820031  RH  070%=      5-min Rain = 0
KLE1 212031Z 02011KT 08/03 A2999 RMK A01 T00830031  RH  070%=      5-min Rain = 0
KLE1 212032Z 02011KT 08/03 A2999 RMK A01 T00830030  RH  069%=      5-min Rain = 0
KLE1 212033Z 03010KT 08/03 A2999 RMK A01 T00820030  RH  070%=      5-min Rain = 0
KLE1 212034Z 03012KT 08/03 A2999 RMK A01 T00830030  RH  070%=      5-min Rain = 0
KLE1 212035Z 02011KT 08/03 A30 RMK A01 T00830030  RH  069%=      5-min Rain = 0
KLE1 212036Z 03010KT 08/03 A30 RMK A01 T00830029  RH  069%=      5-min Rain = 0
KLE1 212037Z 02010KT 08/03 A30 RMK A01 T00830030  RH  069%=      5-min Rain = 0
KLE1 212038Z 02009KT 08/03 A30 RMK A01 T00830029  RH  069%=      5-min Rain = 0
KLE1 212039Z 02011KT 08/03 A30 RMK A01 T00840031  RH  069%=      5-min Rain = 0
KLE1 212040Z 02011KT 08/03 A2999 RMK A01 T00840031  RH  069%=      5-min Rain = 0
KLE1 212041Z 02010KT 08/03 A2999 RMK A01 T00840031  RH  069%=      5-min Rain = 0
KLE1 212042Z 02008KT 08/03 A30 RMK A01 T00840033  RH  070%=      5-min Rain = 0
KLE1 212043Z 03009KT 09/04 A2999 RMK A01 T00850035  RH  071%=      5-min Rain = 0
KLE1 212044Z 03010KT 09/03 A2999 RMK A01 T00850032  RH  070%=      5-min Rain = 0
KLE1 212045Z 03011KT 08/03 A2999 RMK A01 T00840033  RH  070%=      5-min Rain = 0
KLE1 212046Z 03009KT 08/03 A30 RMK A01 T00840033  RH  071%=      5-min Rain = 0
KLE1 212047Z 02009KT 08/04 A30 RMK A01 T00840035  RH  072%=      5-min Rain = 0
KLE1 212048Z 03011KT 08/04 A2999 RMK A01 T00830035  RH  072%=      5-min Rain = 0
KLE1 212049Z 02010KT 08/03 A2999 RMK A01 T00830033  RH  071%=      5-min Rain = 0
KLE1 212050Z 03009KT 08/04 A2999 RMK A01 T00830036  RH  073%=      5-min Rain = 0
KLE1 212051Z 03010KT 08/03 A2999 RMK A01 T00820033  RH  071%=      5-min Rain = 0
KLE1 212052Z 01010KT 08/03 A2999 RMK A01 T00820033  RH  071%=      5-min Rain = 0
KLE1 212053Z 01010KT 08/03 A2999 RMK A01 T00830034  RH  072%=      5-min Rain = 0
KLE1 212054Z 01009KT 08/03 A30 RMK A01 T00830033  RH  071%=      5-min Rain = 0
KLE1 212055Z 02008KT 08/03 A30 RMK A01 T00830032  RH  070%=      5-min Rain = 0
KLE1 212056Z 01009KT 08/03 A30 RMK A01 T00830032  RH  070%=      5-min Rain = 0
KLE1 212057Z 02009KT 08/03 A30 RMK A01 T00830032  RH  070%=      5-min Rain = 0
KLE1 212058Z 02009KT 08/03 A2999 RMK A01 T00840032  RH  070%=      5-min Rain = 0
KLE1 212059Z 03010KT 08/03 A2999 RMK A01 T00840032  RH  070%=      5-min Rain = 0
KLE1 212100Z 02010KT 08/03 A2999 RMK A01 T00840031  RH  069%=      5-min Rain = 0
KLE1 212101Z 01008KT 08/03 A2999 RMK A01 T00840031  RH  069%=      5-min Rain = 0
KLE1 212102Z 02008KT 09/03 A2999 RMK A01 T00850032  RH  070%=      5-min Rain = 0
KLE1 212103Z 02009KT 09/03 A2999 RMK A01 T00850033  RH  070%=      5-min Rain = 0
KLE1 212104Z 03011KT 09/03 A2999 RMK A01 T00860031  RH  069%=      5-min Rain = 0
KLE1 212105Z 03012KT 09/03 A2999 RMK A01 T00860030  RH  068%=      5-min Rain = 0
KLE1 212106Z 03012KT 09/03 A2999 RMK A01 T00850030  RH  068%=      5-min Rain = 0
KLE1 212107Z 03013KT 09/03 A2999 RMK A01 T00850030  RH  068%=      5-min Rain = 0
KLE1 212108Z 03011KT 09/03 A2999 RMK A01 T00850030  RH  068%=      5-min Rain = 0
KLE1 212109Z 04011KT 09/03 A2999 RMK A01 T00850031  RH  069%=      5-min Rain = 0
KLE1 212110Z 04012KT 09/03 A2999 RMK A01 T00850029  RH  068%=      5-min Rain = 0
KLE1 212111Z 03010KT 09/03 A2999 RMK A01 T00850030  RH  068%=      5-min Rain = 0
KLE1 212112Z 03009KT 08/03 A2999 RMK A01 T00840029  RH  068%=      5-min Rain = 0
KLE1 212113Z 02009KT 08/03 A2999 RMK A01 T00840030  RH  068%=      5-min Rain = 0
KLE1 212114Z 04009KT 09/03 A2999 RMK A01 T00850030  RH  069%=      5-min Rain = 0
KLE1 212115Z 03007KT 08/03 A2999 RMK A01 T00840029  RH  068%=      5-min Rain = 0
KLE1 212116Z 03009KT 08/03 A30 RMK A01 T00840030  RH  068%=      5-min Rain = 0
KLE1 212117Z 01010KT 08/03 A30 RMK A01 T00840029  RH  068%=      5-min Rain = 0
KLE1 212118Z 02011KT 08/03 A30 RMK A01 T00840027  RH  067%=      5-min Rain = 0
KLE1 212119Z 05009KT 09/03 A30 RMK A01 T00850031  RH  069%=      5-min Rain = 0
KLE1 212120Z 06009KT 08/03 A30 RMK A01 T00840034  RH  071%=      5-min Rain = 0
KLE1 212121Z 05008KT 08/03 A30 RMK A01 T00840034  RH  071%=      5-min Rain = 0
KLE1 212122Z 04008KT 08/03 A30 RMK A01 T00840034  RH  071%=      5-min Rain = 0
KLE1 212123Z 04007KT 08/04 A30 RMK A01 T00840035  RH  072%=      5-min Rain = 0
KLE1 212124Z 03007KT 09/04 A30 RMK A01 T00850035  RH  071%=      5-min Rain = 0
KLE1 212125Z 03009KT 09/03 A30 RMK A01 T00850031  RH  069%=      5-min Rain = 0
KLE1 212126Z 03010KT 09/03 A30 RMK A01 T00860029  RH  067%=      5-min Rain = 0
KLE1 212127Z 03010KT 09/03 A30 RMK A01 T00860028  RH  067%=      5-min Rain = 0
KLE1 212128Z 03011KT 09/03 A30 RMK A01 T00850028  RH  067%=      5-min Rain = 0
KLE1 212129Z 02010KT 09/03 A30 RMK A01 T00850027  RH  067%=      5-min Rain = 0
KLE1 212130Z 03009KT 09/03 A30 RMK A01 T00850028  RH  067%=      5-min Rain = 0
KLE1 212131Z 02008KT 09/03 A30 RMK A01 T00850029  RH  068%=      5-min Rain = 0
KLE1 212132Z 02009KT 09/03 A30 RMK A01 T00850028  RH  067%=      5-min Rain = 0
KLE1 212133Z 03009KT 09/03 A30 RMK A01 T00850029  RH  068%=      5-min Rain = 0
KLE1 212134Z 02010KT 09/03 A30 RMK A01 T00860029  RH  068%=      5-min Rain = 0
KLE1 212135Z 01009KT 09/03 A30 RMK A01 T00860028  RH  067%=      5-min Rain = 0
KLE1 212136Z 02009KT 09/03 A3001 RMK A01 T00860029  RH  067%=      5-min Rain = 0
KLE1 212137Z 03009KT 09/03 A3001 RMK A01 T00860030  RH  068%=      5-min Rain = 0
KLE1 212138Z 04008KT 09/03 A30 RMK A01 T00860031  RH  068%=      5-min Rain = 0
KLE1 212139Z 04009KT 09/03 A30 RMK A01 T00860031  RH  068%=      5-min Rain = 0
KLE1 212140Z 04007KT 09/03 A30 RMK A01 T00860031  RH  068%=      5-min Rain = 0
KLE1 212141Z 04009KT 09/03 A30 RMK A01 T00860031  RH  068%=      5-min Rain = 0
KLE1 212142Z 04008KT 09/03 A30 RMK A01 T00860032  RH  069%=      5-min Rain = 0
KLE1 212143Z 04007KT 09/03 A30 RMK A01 T00860034  RH  070%=      5-min Rain = 0
KLE1 212144Z 05008KT 09/04 A30 RMK A01 T00850036  RH  071%=      5-min Rain = 0
KLE1 212145Z 05008KT 09/04 A30 RMK A01 T00850038  RH  072%=      5-min Rain = 0
KLE1 212146Z 05007KT 09/04 A30 RMK A01 T00850036  RH  071%=      5-min Rain = 0
KLE1 212147Z 04008KT 09/04 A30 RMK A01 T00850036  RH  072%=      5-min Rain = 0
KLE1 212148Z 05006KT 09/04 A30 RMK A01 T00850035  RH  071%=      5-min Rain = 0
KLE1 212149Z 03008KT 09/04 A3001 RMK A01 T00850036  RH  071%=      5-min Rain = 0
KLE1 212150Z 04009KT 09/03 A3001 RMK A01 T00850031  RH  069%=      5-min Rain = 0
KLE1 212151Z 03009KT 09/03 A3001 RMK A01 T00850030  RH  068%=      5-min Rain = 0
KLE1 212152Z 02008KT 09/03 A3001 RMK A01 T00850031  RH  069%=      5-min Rain = 0
KLE1 212153Z 02010KT 09/03 A3001 RMK A01 T00850031  RH  069%=      5-min Rain = 0
KLE1 212154Z 02009KT 09/03 A3001 RMK A01 T00850030  RH  069%=      5-min Rain = 0
KLE1 212155Z 03009KT 09/03 A3001 RMK A01 T00850031  RH  069%=      5-min Rain = 0
KLE1 212156Z 05007KT 09/03 A3001 RMK A01 T00850033  RH  070%=      5-min Rain = 0
KLE1 212157Z 05006KT 09/04 A3001 RMK A01 T00850037  RH  071%=      5-min Rain = 0
KLE1 212158Z 05008KT 09/04 A30 RMK A01 T00850040  RH  073%=      5-min Rain = 0
KLE1 212159Z 06007KT 09/04 A30 RMK A01 T00850040  RH  073%=      5-min Rain = 0
KLE1 212200Z 07009KT 08/04 A30 RMK A01 T00840040  RH  073%=      5-min Rain = 0
KLE1 212201Z 07008KT 08/04 A30 RMK A01 T00840040  RH  074%=      5-min Rain = 0
KLE1 212202Z 07009KT 08/04 A30 RMK A01 T00830040  RH  074%=      5-min Rain = 0
KLE1 212203Z 06008KT 08/04 A30 RMK A01 T00830038  RH  074%=      5-min Rain = 0
KLE1 212204Z 06008KT 08/04 A30 RMK A01 T00820040  RH  075%=      5-min Rain = 0
KLE1 212205Z 04010KT 08/04 A30 RMK A01 T00830040  RH  074%=      5-min Rain = 0
KLE1 212206Z 04012KT 08/04 A30 RMK A01 T00830035  RH  072%=      5-min Rain = 0
KLE1 212207Z 04010KT 08/03 A30 RMK A01 T00830032  RH  070%=      5-min Rain = 0
KLE1 212208Z 05008KT 08/03 A30 RMK A01 T00820034  RH  072%=      5-min Rain = 0
KLE1 212209Z 05009KT 08/04 A30 RMK A01 T00830037  RH  073%=      5-min Rain = 0
KLE1 212210Z 05012KT 08/04 A30 RMK A01 T00830037  RH  073%=      5-min Rain = 0
KLE1 212211Z 05011KT 08/03 A30 RMK A01 T00820034  RH  071%=      5-min Rain = 0
KLE1 212212Z 05011KT 08/03 A30 RMK A01 T00820034  RH  072%=      5-min Rain = 0
KLE1 212213Z 05010KT 08/03 A30 RMK A01 T00820034  RH  072%=      5-min Rain = 0
KLE1 212214Z 05010KT 08/04 A30 RMK A01 T00820035  RH  072%=      5-min Rain = 0
KLE1 212215Z 04011KT 08/04 A30 RMK A01 T00820035  RH  073%=      5-min Rain = 0
KLE1 212216Z 05010KT 08/03 A30 RMK A01 T00820033  RH  071%=      5-min Rain = 0
KLE1 212217Z 05010KT 08/03 A30 RMK A01 T00820033  RH  071%=      5-min Rain = 0
KLE1 212218Z 04010KT 08/03 A30 RMK A01 T00820034  RH  072%=      5-min Rain = 0
KLE1 212219Z 05010KT 08/03 A30 RMK A01 T00820033  RH  071%=      5-min Rain = 0
KLE1 212220Z 04010KT 08/03 A30 RMK A01 T00820031  RH  071%=      5-min Rain = 0
KLE1 212221Z 04009KT 08/03 A30 RMK A01 T00820032  RH  071%=      5-min Rain = 0
KLE1 212222Z 04010KT 08/03 A30 RMK A01 T00820032  RH  071%=      5-min Rain = 0
KLE1 212223Z 04011KT 08/03 A3001 RMK A01 T00820032  RH  071%=      5-min Rain = 0
KLE1 212224Z 04009KT 08/03 A3001 RMK A01 T00820030  RH  070%=      5-min Rain = 0
KLE1 212225Z 04007KT 08/03 A3001 RMK A01 T00810030  RH  070%=      5-min Rain = 0
KLE1 212226Z 04009KT 08/03 A3001 RMK A01 T00810031  RH  071%=      5-min Rain = 0
KLE1 212227Z 05012KT 08/03 A3001 RMK A01 T00810032  RH  071%=      5-min Rain = 0
KLE1 212228Z 05012KT 08/03 A30 RMK A01 T00810032  RH  071%=      5-min Rain = 0
KLE1 212229Z 05011KT 08/03 A30 RMK A01 T00800032  RH  071%=      5-min Rain = 0
KLE1 212230Z 05013KT 08/03 A30 RMK A01 T00800032  RH  071%=      5-min Rain = 0
KLE1 212231Z 05013KT 08/03 A30 RMK A01 T00800031  RH  071%=      5-min Rain = 0
KLE1 212232Z 05012KT 08/03 A30 RMK A01 T00800031  RH  072%=      5-min Rain = 0
KLE1 212233Z 05014KT 08/03 A30 RMK A01 T00800032  RH  072%=      5-min Rain = 0
KLE1 212234Z 05011KT 08/03 A30 RMK A01 T00800031  RH  071%=      5-min Rain = 0
KLE1 212235Z 05010KT 08/03 A30 RMK A01 T00800032  RH  072%=      5-min Rain = 0
KLE1 212236Z 04011KT 08/03 A30 RMK A01 T00800033  RH  072%=      5-min Rain = 0
KLE1 212237Z 04010KT 08/03 A30 RMK A01 T00800032  RH  072%=      5-min Rain = 0
KLE1 212238Z 05008KT 08/03 A30 RMK A01 T00800033  RH  072%=      5-min Rain = 0
KLE1 212239Z 05008KT 08/03 A3001 RMK A01 T00800034  RH  073%=      5-min Rain = 0
KLE1 212240Z 05010KT 08/04 A3001 RMK A01 T00800035  RH  073%=      5-min Rain = 0
KLE1 212241Z 05011KT 08/03 A3001 RMK A01 T00800034  RH  073%=      5-min Rain = 0
KLE1 212242Z 04010KT 08/03 A3001 RMK A01 T00790033  RH  072%=      5-min Rain = 0
KLE1 212243Z 04010KT 08/03 A3001 RMK A01 T00790032  RH  072%=      5-min Rain = 0
KLE1 212244Z 04011KT 08/03 A3001 RMK A01 T00790031  RH  072%=      5-min Rain = 0
KLE1 212245Z 04012KT 08/03 A3001 RMK A01 T00790031  RH  072%=      5-min Rain = 0
KLE1 212246Z 04012KT 08/03 A3001 RMK A01 T00780031  RH  072%=      5-min Rain = 0
KLE1 212247Z 04009KT 08/03 A3001 RMK A01 T00780031  RH  072%=      5-min Rain = 0
KLE1 212248Z 03012KT 08/03 A3001 RMK A01 T00780032  RH  073%=      5-min Rain = 0
KLE1 212249Z 03013KT 08/03 A3001 RMK A01 T00780032  RH  073%=      5-min Rain = 0
KLE1 212250Z 03013KT 08/03 A3001 RMK A01 T00780031  RH  072%=      5-min Rain = 0
KLE1 212251Z 04013KT 08/03 A3001 RMK A01 T00780031  RH  072%=      5-min Rain = 0
KLE1 212252Z 04012KT 08/03 A3001 RMK A01 T00780031  RH  072%=      5-min Rain = 0
KLE1 212253Z 04011KT 08/03 A3002 RMK A01 T00780030  RH  072%=      5-min Rain = 0
KLE1 212254Z 04012KT 08/03 A3002 RMK A01 T00770030  RH  072%=      5-min Rain = 0
KLE1 212255Z 04011KT 08/03 A3002 RMK A01 T00770029  RH  071%=      5-min Rain = 0
KLE1 212256Z 03013KT 08/03 A3002 RMK A01 T00770028  RH  071%=      5-min Rain = 0
KLE1 212257Z 03012KT 08/03 A3002 RMK A01 T00770027  RH  071%=      5-min Rain = 0
KLE1 212258Z 04012KT 08/03 A3002 RMK A01 T00770027  RH  071%=      5-min Rain = 0
KLE1 212259Z 03012KT 08/03 A3002 RMK A01 T00770027  RH  070%=      5-min Rain = 0
KLE1 212300Z 03011KT 08/03 A3002 RMK A01 T00770026  RH  070%=      5-min Rain = 0
KLE1 212301Z 03013KT 08/03 A3002 RMK A01 T00770027  RH  071%=      5-min Rain = 0
KLE1 212302Z 02014KT 08/03 A3002 RMK A01 T00760026  RH  070%=      5-min Rain = 0
KLE1 212303Z 02014KT 08/03 A3002 RMK A01 T00760025  RH  070%=      5-min Rain = 0
KLE1 212304Z 03012KT 08/03 A3002 RMK A01 T00760026  RH  071%=      5-min Rain = 0
KLE1 212305Z 03013KT 08/03 A3002 RMK A01 T00760026  RH  071%=      5-min Rain = 0
KLE1 212306Z 03012KT 08/03 A3002 RMK A01 T00760026  RH  071%=      5-min Rain = 0
KLE1 212307Z 03012KT 08/03 A3002 RMK A01 T00760025  RH  070%=      5-min Rain = 0
KLE1 212308Z 03012KT 08/03 A3002 RMK A01 T00760026  RH  071%=      5-min Rain = 0
KLE1 212309Z 03013KT 08/03 A3002 RMK A01 T00760027  RH  071%=      5-min Rain = 0
KLE1 212310Z 03011KT 08/03 A3003 RMK A01 T00760027  RH  071%=      5-min Rain = 0
KLE1 212311Z 03012KT 08/03 A3003 RMK A01 T00760027  RH  071%=      5-min Rain = 0
KLE1 212312Z 03013KT 08/03 A3003 RMK A01 T00760027  RH  071%=      5-min Rain = 0
KLE1 212313Z 04011KT 08/03 A3003 RMK A01 T00760026  RH  071%=      5-min Rain = 0
KLE1 212314Z 03013KT 08/03 A3003 RMK A01 T00760027  RH  071%=      5-min Rain = 0
KLE1 212315Z 03012KT 08/03 A3002 RMK A01 T00760026  RH  071%=      5-min Rain = 0
KLE1 212316Z 04012KT 08/03 A3002 RMK A01 T00760026  RH  071%=      5-min Rain = 0
KLE1 212317Z 03012KT 08/03 A3002 RMK A01 T00760027  RH  071%=      5-min Rain = 0
KLE1 212318Z 03011KT 08/03 A3002 RMK A01 T00760027  RH  071%=      5-min Rain = 0
KLE1 212319Z 03010KT 08/03 A3003 RMK A01 T00760028  RH  071%=      5-min Rain = 0
KLE1 212320Z 03009KT 08/03 A3003 RMK A01 T00750028  RH  072%=      5-min Rain = 0
KLE1 212321Z 02010KT 08/03 A3003 RMK A01 T00760028  RH  072%=      5-min Rain = 0
KLE1 212322Z 03012KT 08/03 A3003 RMK A01 T00760028  RH  072%=      5-min Rain = 0
KLE1 212323Z 02013KT 08/03 A3002 RMK A01 T00750026  RH  071%=      5-min Rain = 0
KLE1 212324Z 03012KT 08/03 A3002 RMK A01 T00750026  RH  071%=      5-min Rain = 0
KLE1 212325Z 02013KT 08/03 A3003 RMK A01 T00750026  RH  071%=      5-min Rain = 0
KLE1 212326Z 03013KT 08/03 A3003 RMK A01 T00750026  RH  071%=      5-min Rain = 0
KLE1 212327Z 03013KT 08/03 A3003 RMK A01 T00750026  RH  071%=      5-min Rain = 0
KLE1 212328Z 03012KT 08/03 A3003 RMK A01 T00750026  RH  071%=      5-min Rain = 0
KLE1 212329Z 03013KT 07/03 A3003 RMK A01 T00740026  RH  071%=      5-min Rain = 0
KLE1 212330Z 03013KT 07/03 A3003 RMK A01 T00740026  RH  071%=      5-min Rain = 0
KLE1 212331Z 03013KT 07/03 A3002 RMK A01 T00740026  RH  071%=      5-min Rain = 0
KLE1 212332Z 03013KT 07/03 A3002 RMK A01 T00740027  RH  072%=      5-min Rain = 0
KLE1 212333Z 04013KT 07/03 A3003 RMK A01 T00740026  RH  072%=      5-min Rain = 0
KLE1 212334Z 04012KT 07/03 A3003 RMK A01 T00740026  RH  071%=      5-min Rain = 0
KLE1 212335Z 04011KT 07/03 A3003 RMK A01 T00740026  RH  072%=      5-min Rain = 0
KLE1 212336Z 04012KT 07/03 A3003 RMK A01 T00740027  RH  072%=      5-min Rain = 0
KLE1 212337Z 03013KT 07/03 A3003 RMK A01 T00740026  RH  072%=      5-min Rain = 0
KLE1 212338Z 03013KT 07/03 A3003 RMK A01 T00740026  RH  072%=      5-min Rain = 0
KLE1 212339Z 03011KT 07/03 A3003 RMK A01 T00730026  RH  072%=      5-min Rain = 0
KLE1 212340Z 04011KT 07/03 A3003 RMK A01 T00730027  RH  072%=      5-min Rain = 0
KLE1 212341Z 03009KT 07/03 A3003 RMK A01 T00730027  RH  072%=      5-min Rain = 0
KLE1 212342Z 03009KT 07/03 A3003 RMK A01 T00730027  RH  072%=      5-min Rain = 0
KLE1 212343Z 03011KT 07/03 A3003 RMK A01 T00730026  RH  072%=      5-min Rain = 0
KLE1 212344Z 04011KT 07/03 A3003 RMK A01 T00730026  RH  072%=      5-min Rain = 0
KLE1 212345Z 03011KT 07/03 A3003 RMK A01 T00730027  RH  073%=      5-min Rain = 0
KLE1 212346Z 03011KT 07/03 A3003 RMK A01 T00730027  RH  072%=      5-min Rain = 0
KLE1 212347Z 03010KT 07/03 A3003 RMK A01 T00730027  RH  073%=      5-min Rain = 0
KLE1 212348Z 04010KT 07/03 A3003 RMK A01 T00730027  RH  073%=      5-min Rain = 0
KLE1 212349Z 04011KT 07/03 A3003 RMK A01 T00730027  RH  073%=      5-min Rain = 0
KLE1 212350Z 04011KT 07/03 A3003 RMK A01 T00720027  RH  073%=      5-min Rain = 0
KLE1 212351Z 04011KT 07/03 A3003 RMK A01 T00720027  RH  073%=      5-min Rain = 0
KLE1 212352Z 04011KT 07/03 A3004 RMK A01 T00730028  RH  073%=      5-min Rain = 0
KLE1 212353Z 04013KT 07/03 A3004 RMK A01 T00720027  RH  073%=      5-min Rain = 0
KLE1 212354Z 04011KT 07/03 A3004 RMK A01 T00720026  RH  072%=      5-min Rain = 0
KLE1 212355Z 03011KT 07/03 A3004 RMK A01 T00720026  RH  073%=      5-min Rain = 0
KLE1 212356Z 03012G17KT 07/03 A3004 RMK A01 T00720027  RH  073%=      5-min Rain = 0
KLE1 212357Z 03011KT 07/03 A3004 RMK A01 T00720026  RH  073%=      5-min Rain = 0
KLE1 212358Z 03012KT 07/03 A3004 RMK A01 T00720026  RH  073%=      5-min Rain = 0
KLE1 212359Z 03011KT 07/03 A3004 RMK A01 T00720026  RH  073%=      5-min Rain = 0
KLE1 220000Z 03010KT 07/03 A3004 RMK A01 T00720026  RH  073%=      5-min Rain = 0
KLE1 220001Z 03013KT 07/03 A3004 RMK A01 T00710026  RH  073%=      5-min Rain = 0
KLE1 220002Z 03011KT 07/03 A3004 RMK A01 T00720026  RH  073%=      5-min Rain = 0
KLE1 220003Z 03010KT 07/03 A3004 RMK A01 T00710027  RH  073%=      5-min Rain = 0
KLE1 220004Z 03010KT 07/03 A3004 RMK A01 T00720028  RH  074%=      5-min Rain = 0
KLE1 220005Z 03010KT 07/03 A3004 RMK A01 T00710027  RH  073%=      5-min Rain = 0
KLE1 220006Z 03010KT 07/03 A3004 RMK A01 T00720027  RH  073%=      5-min Rain = 0
KLE1 220007Z 03012KT 07/03 A3004 RMK A01 T00720028  RH  074%=      5-min Rain = 0
KLE1 220008Z 02013KT 07/03 A3005 RMK A01 T00710027  RH  073%=      5-min Rain = 0
KLE1 220009Z 02013KT 07/03 A3005 RMK A01 T00710027  RH  073%=      5-min Rain = 0
KLE1 220010Z 03012KT 07/03 A3005 RMK A01 T00710026  RH  073%=      5-min Rain = 0
KLE1 220011Z 02013KT 07/03 A3005 RMK A01 T00710027  RH  073%=      5-min Rain = 0
KLE1 220012Z 03013KT 07/03 A3005 RMK A01 T00710027  RH  074%=      5-min Rain = 0
KLE1 220013Z 01010KT 07/03 A3005 RMK A01 T00710028  RH  074%=      5-min Rain = 0
KLE1 220014Z 01009KT 07/03 A3005 RMK A01 T00700028  RH  074%=      5-min Rain = 0
KLE1 220015Z 02009KT 07/03 A3006 RMK A01 T00700028  RH  074%=      5-min Rain = 0
KLE1 220016Z 02010KT 07/03 A3006 RMK A01 T00710029  RH  075%=      5-min Rain = 0
KLE1 220017Z 02011KT 07/03 A3006 RMK A01 T00700028  RH  075%=      5-min Rain = 0
KLE1 220018Z 01011KT 07/03 A3006 RMK A01 T00710029  RH  075%=      5-min Rain = 0
KLE1 220019Z 02012KT 07/03 A3006 RMK A01 T00710029  RH  075%=      5-min Rain = 0
KLE1 220020Z 01014KT 07/03 A3006 RMK A01 T00710028  RH  075%=      5-min Rain = 0
KLE1 220021Z 01011KT 07/03 A3006 RMK A01 T00700028  RH  075%=      5-min Rain = 0
KLE1 220022Z 02011KT 07/03 A3006 RMK A01 T00700029  RH  075%=      5-min Rain = 0
KLE1 220023Z 02010KT 07/03 A3006 RMK A01 T00700028  RH  075%=      5-min Rain = 0
KLE1 220024Z 03011KT 07/03 A3006 RMK A01 T00700029  RH  075%=      5-min Rain = 0
KLE1 220025Z 03013KT 07/03 A3006 RMK A01 T00700029  RH  075%=      5-min Rain = 0
KLE1 220026Z 02012KT 07/03 A3006 RMK A01 T00700028  RH  075%=      5-min Rain = 0
KLE1 220027Z 03012KT 07/03 A3005 RMK A01 T00700028  RH  075%=      5-min Rain = 0
KLE1 220028Z 03013KT 07/03 A3005 RMK A01 T00700028  RH  075%=      5-min Rain = 0
KLE1 220029Z 03014KT 07/03 A3005 RMK A01 T00700029  RH  075%=      5-min Rain = 0
KLE1 220030Z 03013KT 07/03 A3005 RMK A01 T00700029  RH  075%=      5-min Rain = 0
KLE1 220031Z 03013KT 07/03 A3005 RMK A01 T00700029  RH  075%=      5-min Rain = 0
KLE1 220032Z 04011KT 07/03 A3006 RMK A01 T00700030  RH  076%=      5-min Rain = 0
KLE1 220033Z 03009KT 07/03 A3006 RMK A01 T00700030  RH  076%=      5-min Rain = 0
KLE1 220034Z 02010KT 07/03 A3006 RMK A01 T00690030  RH  076%=      5-min Rain = 0
KLE1 220035Z 03009KT 07/03 A3006 RMK A01 T00690030  RH  076%=      5-min Rain = 0
KLE1 220036Z 04011KT 07/03 A3006 RMK A01 T00690031  RH  076%=      5-min Rain = 0
KLE1 220037Z 04012KT 07/03 A3006 RMK A01 T00690030  RH  076%=      5-min Rain = 0
KLE1 220038Z 04012KT 07/03 A3006 RMK A01 T00690030  RH  076%=      5-min Rain = 0
KLE1 220039Z 04010KT 07/03 A3006 RMK A01 T00690030  RH  076%=      5-min Rain = 0
KLE1 220040Z 02010KT 07/03 A3006 RMK A01 T00690031  RH  077%=      5-min Rain = 0
KLE1 220041Z 03011KT 07/03 A3006 RMK A01 T00690030  RH  076%=      5-min Rain = 0
KLE1 220042Z 03011KT 07/03 A3006 RMK A01 T00690030  RH  076%=      5-min Rain = 0
KLE1 220043Z 03009KT 07/03 A3006 RMK A01 T00690031  RH  077%=      5-min Rain = 0
KLE1 220044Z 04011KT 07/03 A3006 RMK A01 T00690031  RH  077%=      5-min Rain = 0
KLE1 220045Z 04013KT 07/03 A3006 RMK A01 T00690031  RH  077%=      5-min Rain = 0
KLE1 220046Z 04012KT 07/03 A3006 RMK A01 T00690031  RH  077%=      5-min Rain = 0
KLE1 220047Z 03011KT 07/03 A3007 RMK A01 T00690032  RH  077%=      5-min Rain = 0
KLE1 220048Z 03011KT 07/03 A3007 RMK A01 T00690031  RH  077%=      5-min Rain = 0
KLE1 220049Z 03011KT 07/03 A3007 RMK A01 T00680031  RH  077%=      5-min Rain = 0
KLE1 220050Z 02011KT 07/03 A3007 RMK A01 T00680031  RH  077%=      5-min Rain = 0
KLE1 220051Z 03010KT 07/03 A3007 RMK A01 T00680031  RH  077%=      5-min Rain = 0
KLE1 220052Z 03010KT 07/03 A3007 RMK A01 T00680032  RH  077%=      5-min Rain = 0
KLE1 220053Z 03008KT 07/03 A3007 RMK A01 T00680032  RH  078%=      5-min Rain = 0
KLE1 220054Z 03008KT 07/03 A3007 RMK A01 T00680032  RH  078%=      5-min Rain = 0
KLE1 220055Z 03010KT 07/03 A3007 RMK A01 T00680032  RH  078%=      5-min Rain = 0
KLE1 220056Z 03011KT 07/03 A3007 RMK A01 T00680031  RH  077%=      5-min Rain = 0
KLE1 220057Z 03010KT 07/03 A3007 RMK A01 T00690031  RH  077%=      5-min Rain = 0
KLE1 220058Z 02012KT 07/03 A3007 RMK A01 T00680031  RH  077%=      5-min Rain = 0
KLE1 220059Z 02011KT 07/03 A3007 RMK A01 T00690030  RH  077%=      5-min Rain = 0
KLE1 220100Z 02011KT 07/03 A3007 RMK A01 T00680030  RH  077%=      5-min Rain = 0
KLE1 220101Z 02013KT 07/03 A3007 RMK A01 T00680030  RH  076%=      5-min Rain = 0
KLE1 220102Z 02013KT 07/03 A3007 RMK A01 T00680028  RH  075%=      5-min Rain = 0
KLE1 220103Z 02012KT 07/03 A3007 RMK A01 T00680028  RH  075%=      5-min Rain = 0
KLE1 220104Z 02015KT 07/03 A3007 RMK A01 T00680027  RH  075%=      5-min Rain = 0
KLE1 220105Z 03013KT 07/03 A3007 RMK A01 T00680027  RH  075%=      5-min Rain = 0
KLE1 220106Z 02012KT 07/03 A3007 RMK A01 T00680027  RH  075%=      5-min Rain = 0
KLE1 220107Z 02012KT 07/03 A3007 RMK A01 T00680027  RH  075%=      5-min Rain = 0
KLE1 220108Z 02011KT 07/03 A3007 RMK A01 T00680027  RH  075%=      5-min Rain = 0
KLE1 220109Z 02012KT 07/03 A3007 RMK A01 T00680027  RH  075%=      5-min Rain = 0
KLE1 220110Z 02013KT 07/03 A3007 RMK A01 T00680026  RH  075%=      5-min Rain = 0
KLE1 220111Z 02010KT 07/03 A3007 RMK A01 T00680026  RH  075%=      5-min Rain = 0
KLE1 220112Z 02010KT 07/03 A3007 RMK A01 T00680026  RH  075%=      5-min Rain = 0
KLE1 220113Z 01009KT 07/03 A3007 RMK A01 T00680027  RH  075%=      5-min Rain = 0
KLE1 220114Z 01011KT 07/03 A3007 RMK A01 T00680026  RH  075%=      5-min Rain = 0
KLE1 220115Z 02011KT 07/03 A3007 RMK A01 T00680025  RH  074%=      5-min Rain = 0
KLE1 220116Z 02010KT 07/03 A3007 RMK A01 T00680025  RH  074%=      5-min Rain = 0
KLE1 220117Z 02010KT 07/03 A3007 RMK A01 T00680025  RH  074%=      5-min Rain = 0
KLE1 220118Z 03011KT 07/03 A3007 RMK A01 T00680025  RH  074%=      5-min Rain = 0
KLE1 220119Z 02014KT 07/03 A3007 RMK A01 T00680025  RH  074%=      5-min Rain = 0
KLE1 220120Z 02013KT 07/02 A3007 RMK A01 T00680024  RH  074%=      5-min Rain = 0
KLE1 220121Z 02012KT 07/03 A3007 RMK A01 T00680025  RH  074%=      5-min Rain = 0
KLE1 220122Z 04012KT 07/03 A3007 RMK A01 T00680025  RH  074%=      5-min Rain = 0
KLE1 220123Z 03012KT 07/03 A3007 RMK A01 T00680025  RH  074%=      5-min Rain = 0
KLE1 220124Z 03011KT 07/03 A3007 RMK A01 T00680026  RH  074%=      5-min Rain = 0
KLE1 220125Z 04011KT 07/03 A3007 RMK A01 T00680025  RH  074%=      5-min Rain = 0
KLE1 220126Z 04010KT 07/03 A3007 RMK A01 T00680026  RH  074%=      5-min Rain = 0
KLE1 220127Z 03011KT 07/03 A3007 RMK A01 T00680025  RH  074%=      5-min Rain = 0
KLE1 220128Z 05010KT 07/03 A3007 RMK A01 T00680025  RH  074%=      5-min Rain = 0
KLE1 220129Z 04010KT 07/03 A3007 RMK A01 T00680026  RH  074%=      5-min Rain = 0
KLE1 220130Z 04009KT 07/03 A3007 RMK A01 T00690026  RH  074%=      5-min Rain = 0
KLE1 220131Z 04008KT 07/03 A3007 RMK A01 T00680025  RH  074%=      5-min Rain = 0
KLE1 220132Z 04007KT 07/03 A3007 RMK A01 T00680026  RH  074%=      5-min Rain = 0
KLE1 220133Z 03009KT 07/03 A3007 RMK A01 T00680026  RH  074%=      5-min Rain = 0
KLE1 220134Z 03010KT 07/03 A3007 RMK A01 T00680025  RH  074%=      5-min Rain = 0
KLE1 220135Z 03008KT 07/02 A3007 RMK A01 T00680024  RH  073%=      5-min Rain = 0
KLE1 220136Z 03009KT 07/02 A3007 RMK A01 T00690024  RH  073%=      5-min Rain = 0
KLE1 220137Z 03009KT 07/02 A3007 RMK A01 T00680024  RH  073%=      5-min Rain = 0
KLE1 220138Z 03009KT 07/02 A3007 RMK A01 T00690024  RH  073%=      5-min Rain = 0
KLE1 220139Z 03009KT 07/02 A3007 RMK A01 T00680024  RH  073%=      5-min Rain = 0
KLE1 220140Z 03009KT 07/02 A3007 RMK A01 T00680023  RH  073%=      5-min Rain = 0
KLE1 220141Z 04008KT 07/02 A3007 RMK A01 T00680023  RH  073%=      5-min Rain = 0
KLE1 220142Z 04006KT 07/02 A3008 RMK A01 T00690024  RH  073%=      5-min Rain = 0
KLE1 220143Z 05007KT 07/02 A3008 RMK A01 T00680024  RH  074%=      5-min Rain = 0
KLE1 220144Z 04007KT 07/02 A3008 RMK A01 T00680023  RH  073%=      5-min Rain = 0
KLE1 220145Z 03007KT 07/02 A3008 RMK A01 T00690024  RH  073%=      5-min Rain = 0
KLE1 220146Z 03007KT 07/02 A3008 RMK A01 T00690023  RH  072%=      5-min Rain = 0
KLE1 220147Z 03009KT 07/02 A3008 RMK A01 T00690022  RH  072%=      5-min Rain = 0
KLE1 220148Z 05008KT 07/02 A3008 RMK A01 T00690022  RH  072%=      5-min Rain = 0
KLE1 220149Z 05006KT 07/02 A3008 RMK A01 T00690023  RH  073%=      5-min Rain = 0
KLE1 220150Z 05007KT 07/02 A3008 RMK A01 T00690024  RH  073%=      5-min Rain = 0
KLE1 220151Z 05008KT 07/02 A3007 RMK A01 T00690024  RH  073%=      5-min Rain = 0
KLE1 220152Z 04009KT 07/03 A3007 RMK A01 T00690026  RH  074%=      5-min Rain = 0
KLE1 220153Z 05009KT 07/03 A3007 RMK A01 T00690026  RH  074%=      5-min Rain = 0
KLE1 220154Z 05008KT 07/03 A3007 RMK A01 T00680028  RH  075%=      5-min Rain = 0
KLE1 220155Z 05009KT 07/03 A3007 RMK A01 T00680028  RH  075%=      5-min Rain = 0
KLE1 220156Z 05008KT 07/03 A3007 RMK A01 T00680028  RH  076%=      5-min Rain = 0
KLE1 220157Z 05008KT 07/03 A3007 RMK A01 T00670028  RH  076%=      5-min Rain = 0
KLE1 220158Z 05009KT 07/03 A3007 RMK A01 T00670029  RH  076%=      5-min Rain = 0
KLE1 220159Z 06009KT 07/03 A3007 RMK A01 T00670028  RH  076%=      5-min Rain = 0
KLE1 220200Z 05008KT 07/03 A3007 RMK A01 T00670027  RH  076%=      5-min Rain = 0
KLE1 220201Z 05009KT 07/03 A3008 RMK A01 T00670029  RH  077%=      5-min Rain = 0
KLE1 220202Z 05009KT 07/03 A3008 RMK A01 T00670028  RH  076%=      5-min Rain = 0
KLE1 220203Z 04010KT 07/03 A3008 RMK A01 T00670026  RH  075%=      5-min Rain = 0
KLE1 220204Z 05008KT 07/03 A3008 RMK A01 T00670025  RH  075%=      5-min Rain = 0
KLE1 220205Z 04009KT 07/03 A3008 RMK A01 T00660026  RH  076%=      5-min Rain = 0
KLE1 220206Z 04008KT 07/03 A3008 RMK A01 T00660026  RH  075%=      5-min Rain = 0
KLE1 220207Z 04007KT 07/03 A3008 RMK A01 T00670026  RH  075%=      5-min Rain = 0
KLE1 220208Z 05008KT 07/03 A3008 RMK A01 T00670027  RH  076%=      5-min Rain = 0
KLE1 220209Z 04007KT 07/03 A3008 RMK A01 T00670026  RH  075%=      5-min Rain = 0
KLE1 220210Z 04008KT 07/03 A3008 RMK A01 T00670026  RH  075%=      5-min Rain = 0
KLE1 220211Z 04009KT 07/03 A3008 RMK A01 T00660025  RH  075%=      5-min Rain = 0
KLE1 220212Z 05008KT 07/03 A3008 RMK A01 T00660025  RH  075%=      5-min Rain = 0
KLE1 220213Z 04008KT 07/03 A3008 RMK A01 T00660025  RH  075%=      5-min Rain = 0
KLE1 220214Z 04008KT 07/03 A3008 RMK A01 T00670025  RH  075%=      5-min Rain = 0
KLE1 220215Z 04007KT 07/03 A3008 RMK A01 T00670025  RH  075%=      5-min Rain = 0
KLE1 220216Z 04010KT 07/03 A3008 RMK A01 T00670026  RH  075%=      5-min Rain = 0
KLE1 220217Z 03008KT 07/02 A3008 RMK A01 T00670024  RH  074%=      5-min Rain = 0
KLE1 220218Z 04008KT 07/03 A3008 RMK A01 T00660025  RH  075%=      5-min Rain = 0
KLE1 220219Z 04013KT 07/03 A3008 RMK A01 T00670025  RH  075%=      5-min Rain = 0
KLE1 220220Z 04011KT 07/02 A3008 RMK A01 T00670023  RH  074%=      5-min Rain = 0
KLE1 220221Z 04009KT 07/02 A3008 RMK A01 T00670023  RH  073%=      5-min Rain = 0
KLE1 220222Z 04008KT 07/02 A3008 RMK A01 T00670024  RH  074%=      5-min Rain = 0
KLE1 220223Z 04008KT 07/03 A3008 RMK A01 T00670026  RH  075%=      5-min Rain = 0
KLE1 220224Z 04008KT 07/03 A3008 RMK A01 T00670026  RH  075%=      5-min Rain = 0
KLE1 220225Z 03008KT 07/03 A3008 RMK A01 T00670026  RH  075%=      5-min Rain = 0
KLE1 220226Z 04008KT 07/03 A3008 RMK A01 T00670025  RH  075%=      5-min Rain = 0
KLE1 220227Z 03008KT 07/03 A3008 RMK A01 T00670025  RH  075%=      5-min Rain = 0
KLE1 220228Z 03009KT 07/03 A3008 RMK A01 T00670025  RH  075%=      5-min Rain = 0
KLE1 220229Z 03011KT 07/02 A3008 RMK A01 T00670024  RH  074%=      5-min Rain = 0
KLE1 220230Z 04010KT 07/02 A3008 RMK A01 T00660023  RH  074%=      5-min Rain = 0
KLE1 220231Z 02009KT 07/02 A3008 RMK A01 T00660024  RH  074%=      5-min Rain = 0
KLE1 220232Z 02009KT 07/03 A3008 RMK A01 T00660025  RH  075%=      5-min Rain = 0
KLE1 220233Z 03009KT 07/03 A3008 RMK A01 T00670025  RH  075%=      5-min Rain = 0
KLE1 220234Z 04011KT 07/02 A3008 RMK A01 T00670024  RH  074%=      5-min Rain = 0
KLE1 220235Z 02008KT 07/02 A3008 RMK A01 T00670023  RH  074%=      5-min Rain = 0
KLE1 220236Z 02010KT 07/02 A3008 RMK A01 T00670024  RH  074%=      5-min Rain = 0
KLE1 220237Z 03009KT 07/02 A3008 RMK A01 T00670024  RH  074%=      5-min Rain = 0
KLE1 220238Z 03008KT 07/03 A3008 RMK A01 T00670025  RH  075%=      5-min Rain = 0
KLE1 220239Z 03010KT 07/03 A3008 RMK A01 T00670025  RH  075%=      5-min Rain = 0
KLE1 220240Z 03010KT 07/03 A3008 RMK A01 T00670025  RH  075%=      5-min Rain = 0
KLE1 220241Z 04009KT 07/03 A3008 RMK A01 T00660025  RH  075%=      5-min Rain = 0
KLE1 220242Z 04009KT 07/03 A3008 RMK A01 T00660026  RH  075%=      5-min Rain = 0
KLE1 220243Z 03010KT 07/03 A3008 RMK A01 T00660025  RH  075%=      5-min Rain = 0
KLE1 220244Z 03010KT 07/02 A3008 RMK A01 T00670024  RH  074%=      5-min Rain = 0
KLE1 220245Z 03009KT 07/02 A3008 RMK A01 T00670024  RH  074%=      5-min Rain = 0
KLE1 220246Z 03009KT 07/02 A3008 RMK A01 T00670024  RH  074%=      5-min Rain = 0
KLE1 220247Z 02009KT 07/02 A3009 RMK A01 T00660024  RH  074%=      5-min Rain = 0
KLE1 220248Z 03008KT 07/02 A3009 RMK A01 T00660024  RH  074%=      5-min Rain = 0
KLE1 220249Z 03007KT 07/02 A3009 RMK A01 T00670024  RH  074%=      5-min Rain = 0
KLE1 220250Z 04009KT 07/02 A3009 RMK A01 T00660024  RH  074%=      5-min Rain = 0
KLE1 220251Z 03006KT 07/02 A3009 RMK A01 T00660024  RH  075%=      5-min Rain = 0
KLE1 220252Z 03005KT 07/03 A3009 RMK A01 T00660025  RH  075%=      5-min Rain = 0
KLE1 220253Z 03006KT 07/03 A301 RMK A01 T00670026  RH  075%=      5-min Rain = 0
KLE1 220254Z 04007KT 07/03 A301 RMK A01 T00660025  RH  075%=      5-min Rain = 0
KLE1 220255Z 03006KT 07/03 A301 RMK A01 T00660025  RH  075%=      5-min Rain = 0
KLE1 220256Z 02005KT 07/02 A301 RMK A01 T00660024  RH  074%=      5-min Rain = 0
KLE1 220257Z 01007KT 07/03 A3011 RMK A01 T00670025  RH  075%=      5-min Rain = 0
KLE1 220258Z 36005KT 07/02 A3011 RMK A01 T00670024  RH  074%=      5-min Rain = 0
KLE1 220259Z 35007KT 07/03 A3011 RMK A01 T00670025  RH  074%=      5-min Rain = 0
KLE1 220300Z 34006KT 07/03 A3012 RMK A01 T00670025  RH  074%=      5-min Rain = 0
KLE1 220301Z 34009KT 07/03 A3012 RMK A01 T00670025  RH  075%=      5-min Rain = 0
KLE1 220302Z 34009KT 07/02 A3013 RMK A01 T00670024  RH  074%=      5-min Rain = 0
KLE1 220303Z 33009KT 07/03 A3013 RMK A01 T00680025  RH  074%=      5-min Rain = 0
KLE1 220304Z 31012KT 07/03 A3014 RMK A01 T00680025  RH  074%=      5-min Rain = 0
KLE1 220305Z 31011KT 07/03 A3015 RMK A01 T00670026  RH  075%=      5-min Rain = 0
KLE1 220306Z 30013KT 07/03 A3015 RMK A01 T00670026  RH  075%=      5-min Rain = 0
KLE1 220307Z 29015KT 07/03 A3016 RMK A01 T00670028  RH  076%=      5-min Rain = 0
KLE1 220308Z 30016KT 07/03 A3016 RMK A01 T00670030  RH  077%=      5-min Rain = 0
KLE1 220309Z 30015KT 07/03 A3016 RMK A01 T00670031  RH  078%=      5-min Rain = 0
KLE1 220310Z 30013KT 07/03 A3016 RMK A01 T00660031  RH  078%=      5-min Rain = 0
KLE1 220311Z 30013KT 07/03 A3016 RMK A01 T00660032  RH  079%=      5-min Rain = 0
KLE1 220312Z 30012KT 07/03 A3016 RMK A01 T00660031  RH  079%=      5-min Rain = 0
KLE1 220313Z 30011KT 07/03 A3016 RMK A01 T00660031  RH  079%=      5-min Rain = 0
KLE1 220314Z 30013KT 07/03 A3016 RMK A01 T00660031  RH  079%=      5-min Rain = 0
KLE1 220315Z 31012KT 07/03 A3015 RMK A01 T00660030  RH  078%=      5-min Rain = 0
KLE1 220316Z 31009KT 07/03 A3015 RMK A01 T00660028  RH  077%=      5-min Rain = 0
KLE1 220317Z 31007KT 07/03 A3015 RMK A01 T00660029  RH  077%=      5-min Rain = 0
KLE1 220318Z 32008KT 07/03 A3015 RMK A01 T00660029  RH  077%=      5-min Rain = 0
KLE1 220319Z 32009KT 07/03 A3015 RMK A01 T00660029  RH  077%=      5-min Rain = 0
KLE1 220320Z 32010KT 07/03 A3015 RMK A01 T00660028  RH  077%=      5-min Rain = 0
KLE1 220321Z 33010KT 07/03 A3015 RMK A01 T00660027  RH  076%=      5-min Rain = 0
KLE1 220322Z 32008KT 07/03 A3015 RMK A01 T00670027  RH  076%=      5-min Rain = 0
KLE1 220323Z 32007KT 07/03 A3015 RMK A01 T00670029  RH  077%=      5-min Rain = 0
KLE1 220324Z 32007KT 07/03 A3015 RMK A01 T00660030  RH  078%=      5-min Rain = 0
KLE1 220325Z 34008KT 07/03 A3015 RMK A01 T00660030  RH  078%=      5-min Rain = 0
KLE1 220326Z 33010KT 07/03 A3015 RMK A01 T00650030  RH  078%=      5-min Rain = 0
KLE1 220327Z 34011KT 06/03 A3015 RMK A01 T00640030  RH  079%=      5-min Rain = 0
KLE1 220328Z 33010KT 06/03 A3015 RMK A01 T00640031  RH  079%=      5-min Rain = 0
KLE1 220329Z 32009KT 06/03 A3016 RMK A01 T00620033  RH  081%=      5-min Rain = 0.01
KLE1 220330Z 32007KT 06/04 A3016 RMK A01 T00600035  RH  084%=      5-min Rain = 0
KLE1 220331Z 33009KT 06/04 A3016 RMK A01 T00590036  RH  085%=      5-min Rain = 0.01
KLE1 220332Z 33011KT 06/04 A3015 RMK A01 T00580035  RH  085%=      5-min Rain = 0
KLE1 220333Z 33013KT 06/04 A3015 RMK A01 T00580036  RH  086%=      5-min Rain = 0
KLE1 220334Z 33015KT 06/04 A3015 RMK A01 T00570036  RH  087%=      5-min Rain = 0
KLE1 220335Z 32014KT 06/04 A3016 RMK A01 T00560036  RH  087%=      5-min Rain = 0
KLE1 220336Z 32011KT 06/04 A3016 RMK A01 T00560037  RH  088%=      5-min Rain = 0
KLE1 220337Z 31012KT 06/04 A3017 RMK A01 T00550037  RH  088%=      5-min Rain = 0
KLE1 220338Z 31012KT 06/04 A3018 RMK A01 T00550038  RH  089%=      5-min Rain = 0
KLE1 220339Z 31013KT 06/04 A3018 RMK A01 T00550038  RH  089%=      5-min Rain = 0
KLE1 220340Z 31012KT 06/04 A3018 RMK A01 T00550037  RH  089%=      5-min Rain = 0
KLE1 220341Z 31015KT 06/04 A3018 RMK A01 T00550038  RH  089%=      5-min Rain = 0
KLE1 220342Z 32014KT 06/04 A3017 RMK A01 T00550038  RH  089%=      5-min Rain = 0
KLE1 220343Z 32012KT 05/04 A3017 RMK A01 T00540038  RH  089%=      5-min Rain = 0
KLE1 220344Z 33012KT 05/04 A3016 RMK A01 T00540039  RH  090%=      5-min Rain = 0
KLE1 220345Z 32013KT 05/04 A3016 RMK A01 T00530039  RH  091%=      5-min Rain = 0
KLE1 220346Z 32013KT 05/04 A3017 RMK A01 T00530039  RH  091%=      5-min Rain = 0
KLE1 220347Z 32014KT 05/04 A3017 RMK A01 T00530039  RH  091%=      5-min Rain = 0
KLE1 220348Z 31012KT 05/04 A3018 RMK A01 T00520039  RH  091%=      5-min Rain = 0
KLE1 220349Z 31013KT 05/04 A3018 RMK A01 T00520040  RH  092%=      5-min Rain = 0
KLE1 220350Z 32013KT 05/04 A3018 RMK A01 T00520040  RH  092%=      5-min Rain = 0
KLE1 220351Z 32014KT 05/04 A3018 RMK A01 T00520039  RH  091%=      5-min Rain = 0
KLE1 220352Z 33011KT 05/04 A3017 RMK A01 T00520038  RH  091%=      5-min Rain = 0
KLE1 220353Z 33011KT 05/04 A3017 RMK A01 T00520038  RH  091%=      5-min Rain = 0
KLE1 220354Z 34011KT 05/04 A3017 RMK A01 T00510038  RH  091%=      5-min Rain = 0
KLE1 220355Z 34010KT 05/04 A3016 RMK A01 T00510037  RH  091%=      5-min Rain = 0
KLE1 220356Z 35011KT 05/04 A3016 RMK A01 T00510037  RH  091%=      5-min Rain = 0
KLE1 220357Z 34011KT 05/04 A3016 RMK A01 T00510038  RH  091%=      5-min Rain = 0
KLE1 220358Z 34013KT 05/04 A3016 RMK A01 T00510039  RH  092%=      5-min Rain = 0
KLE1 220359Z 34012KT 05/04 A3016 RMK A01 T00510038  RH  091%=      5-min Rain = 0
KLE1 220400Z 34012KT 05/04 A3016 RMK A01 T00510037  RH  091%=      5-min Rain = 0
KLE1 220401Z 35014KT 05/04 A3015 RMK A01 T00510037  RH  091%=      5-min Rain = 0
KLE1 220402Z 35013KT 05/04 A3015 RMK A01 T00510037  RH  090%=      5-min Rain = 0
KLE1 220403Z 35011KT 05/04 A3015 RMK A01 T00510037  RH  091%=      5-min Rain = 0
KLE1 220404Z 35012KT 05/04 A3015 RMK A01 T00510037  RH  091%=      5-min Rain = 0
KLE1 220405Z 35012KT 05/04 A3015 RMK A01 T00510037  RH  091%=      5-min Rain = 0
KLE1 220406Z 35012KT 05/04 A3014 RMK A01 T00510037  RH  091%=      5-min Rain = 0
KLE1 220407Z 00013KT 05/04 A3014 RMK A01 T00510037  RH  091%=      5-min Rain = 0
KLE1 220408Z 00012KT 05/04 A3013 RMK A01 T00510037  RH  091%=      5-min Rain = 0
KLE1 220409Z 01012KT 05/04 A3013 RMK A01 T00510037  RH  091%=      5-min Rain = 0
KLE1 220410Z 01011KT 05/04 A3013 RMK A01 T00510036  RH  090%=      5-min Rain = 0
KLE1 220411Z 01012KT 05/04 A3013 RMK A01 T00510037  RH  091%=      5-min Rain = 0
KLE1 220412Z 01010KT 05/04 A3013 RMK A01 T00510037  RH  091%=      5-min Rain = 0
KLE1 220413Z 00011KT 05/04 A3013 RMK A01 T00510038  RH  091%=      5-min Rain = 0
KLE1 220414Z 00012KT 05/04 A3013 RMK A01 T00510037  RH  091%=      5-min Rain = 0
KLE1 220415Z 00012KT 05/04 A3013 RMK A01 T00510037  RH  091%=      5-min Rain = 0
KLE1 220416Z 00012KT 05/04 A3013 RMK A01 T00510036  RH  090%=      5-min Rain = 0
KLE1 220417Z 01013KT 05/04 A3013 RMK A01 T00510036  RH  090%=      5-min Rain = 0
KLE1 220418Z 00013KT 05/04 A3013 RMK A01 T00510036  RH  090%=      5-min Rain = 0
KLE1 220419Z 00012KT 05/04 A3013 RMK A01 T00510035  RH  090%=      5-min Rain = 0
KLE1 220420Z 00011KT 05/04 A3013 RMK A01 T00510036  RH  090%=      5-min Rain = 0
KLE1 220421Z 00013KT 05/04 A3013 RMK A01 T00510036  RH  090%=      5-min Rain = 0
KLE1 220422Z 00012KT 05/04 A3013 RMK A01 T00510035  RH  089%=      5-min Rain = 0
KLE1 220423Z 01012KT 05/04 A3013 RMK A01 T00510035  RH  089%=      5-min Rain = 0
KLE1 220424Z 35010KT 05/04 A3013 RMK A01 T00510035  RH  089%=      5-min Rain = 0
KLE1 220425Z 36013KT 05/04 A3013 RMK A01 T00510035  RH  090%=      5-min Rain = 0
KLE1 220426Z 00013KT 05/04 A3013 RMK A01 T00510035  RH  089%=      5-min Rain = 0
KLE1 220427Z 00012KT 05/04 A3013 RMK A01 T00510035  RH  089%=      5-min Rain = 0
KLE1 220428Z 36011KT 05/04 A3013 RMK A01 T00510035  RH  089%=      5-min Rain = 0
KLE1 220429Z 36011KT 05/04 A3013 RMK A01 T00510036  RH  090%=      5-min Rain = 0
KLE1 220430Z 00010KT 05/04 A3013 RMK A01 T00510035  RH  090%=      5-min Rain = 0
KLE1 220431Z 00014KT 05/04 A3013 RMK A01 T00500036  RH  090%=      5-min Rain = 0
KLE1 220432Z 00014KT 05/04 A3013 RMK A01 T00500035  RH  090%=      5-min Rain = 0
KLE1 220433Z 00013KT 05/03 A3013 RMK A01 T00500034  RH  089%=      5-min Rain = 0
KLE1 220434Z 01013KT 05/03 A3013 RMK A01 T00500034  RH  089%=      5-min Rain = 0
KLE1 220435Z 01016KT 05/03 A3013 RMK A01 T00500034  RH  089%=      5-min Rain = 0
KLE1 220436Z 01015KT 05/03 A3013 RMK A01 T00510034  RH  089%=      5-min Rain = 0
KLE1 220437Z 01013KT 05/03 A3013 RMK A01 T00510034  RH  089%=      5-min Rain = 0
KLE1 220438Z 01013KT 05/03 A3012 RMK A01 T00500034  RH  089%=      5-min Rain = 0
KLE1 220439Z 01016KT 05/03 A3012 RMK A01 T00510034  RH  089%=      5-min Rain = 0
KLE1 220440Z 02012KT 05/03 A3012 RMK A01 T00500033  RH  089%=      5-min Rain = 0
KLE1 220441Z 02015KT 05/03 A3012 RMK A01 T00500034  RH  089%=      5-min Rain = 0
KLE1 220442Z 02014KT 05/03 A3011 RMK A01 T00510032  RH  088%=      5-min Rain = 0
KLE1 220443Z 02013KT 05/03 A3011 RMK A01 T00510031  RH  087%=      5-min Rain = 0
KLE1 220444Z 03013KT 05/03 A3011 RMK A01 T00500031  RH  087%=      5-min Rain = 0
KLE1 220445Z 04014KT 05/03 A3009 RMK A01 T00510031  RH  087%=      5-min Rain = 0
KLE1 220446Z 04015KT 05/03 A3009 RMK A01 T00510031  RH  087%=      5-min Rain = 0
KLE1 220447Z 04014KT 05/03 A3008 RMK A01 T00500031  RH  087%=      5-min Rain = 0
KLE1 220448Z 04013KT 05/03 A3008 RMK A01 T00500031  RH  087%=      5-min Rain = 0
KLE1 220449Z 04013KT 05/03 A3008 RMK A01 T00500031  RH  088%=      5-min Rain = 0
KLE1 220450Z 03012KT 05/03 A3009 RMK A01 T00500031  RH  087%=      5-min Rain = 0
KLE1 220451Z 04012KT 05/03 A3009 RMK A01 T00500031  RH  088%=      5-min Rain = 0.01
KLE1 220452Z 05013KT 05/03 A3009 RMK A01 T00500031  RH  087%=      5-min Rain = 0
KLE1 220453Z 05010KT 05/03 A301 RMK A01 T00500030  RH  087%=      5-min Rain = 0
KLE1 220454Z 05012KT 05/03 A301 RMK A01 T00490031  RH  088%=      5-min Rain = 0.01
KLE1 220455Z 05011KT 05/03 A301 RMK A01 T00490030  RH  087%=      5-min Rain = 0
KLE1 220456Z 05010KT 05/03 A3011 RMK A01 T00490030  RH  087%=      5-min Rain = 0
KLE1 220457Z 05011KT 05/03 A3011 RMK A01 T00490029  RH  087%=      5-min Rain = 0
KLE1 220458Z 05010KT 05/03 A3011 RMK A01 T00490030  RH  087%=      5-min Rain = 0
KLE1 220459Z 06009KT 05/03 A3011 RMK A01 T00490030  RH  087%=      5-min Rain = 0
KLE1 220500Z 06011KT 05/03 A3011 RMK A01 T00490030  RH  088%=      5-min Rain = 0
KLE1 220501Z 06009KT 05/03 A3011 RMK A01 T00490030  RH  088%=      5-min Rain = 0
KLE1 220502Z 06008KT 05/03 A3011 RMK A01 T00490031  RH  088%=      5-min Rain = 0
KLE1 220503Z 05009KT 05/03 A3011 RMK A01 T00490031  RH  088%=      5-min Rain = 0
KLE1 220504Z 06010KT 05/03 A3011 RMK A01 T00480029  RH  088%=      5-min Rain = 0
KLE1 220505Z 06010KT 05/03 A3011 RMK A01 T00480029  RH  087%=      5-min Rain = 0
KLE1 220506Z 06010KT 05/03 A3011 RMK A01 T00480029  RH  087%=      5-min Rain = 0
KLE1 220507Z 05010KT 05/03 A3011 RMK A01 T00480029  RH  087%=      5-min Rain = 0
KLE1 220508Z 06009KT 05/03 A3011 RMK A01 T00480028  RH  087%=      5-min Rain = 0
KLE1 220509Z 06008KT 05/03 A3011 RMK A01 T00490029  RH  087%=      5-min Rain = 0
KLE1 220510Z 06010KT 05/03 A3011 RMK A01 T00490030  RH  088%=      5-min Rain = 0
KLE1 220511Z 06008KT 05/03 A3011 RMK A01 T00490030  RH  088%=      5-min Rain = 0
KLE1 220512Z 07008KT 05/03 A3011 RMK A01 T00490031  RH  088%=      5-min Rain = 0
KLE1 220513Z 07009KT 05/03 A3011 RMK A01 T00480031  RH  088%=      5-min Rain = 0
KLE1 220514Z 07009KT 05/03 A3011 RMK A01 T00480030  RH  088%=      5-min Rain = 0
KLE1 220515Z 07008KT 05/03 A3011 RMK A01 T00490029  RH  087%=      5-min Rain = 0
KLE1 220516Z 07008KT 05/03 A3011 RMK A01 T00490030  RH  088%=      5-min Rain = 0
KLE1 220517Z 07007KT 05/03 A3011 RMK A01 T00490030  RH  088%=      5-min Rain = 0
KLE1 220518Z 06008KT 05/03 A301 RMK A01 T00490031  RH  088%=      5-min Rain = 0
KLE1 220519Z 05009KT 05/03 A301 RMK A01 T00480031  RH  089%=      5-min Rain = 0
KLE1 220520Z 06009KT 05/03 A301 RMK A01 T00480031  RH  089%=      5-min Rain = 0
KLE1 220521Z 05008KT 05/03 A301 RMK A01 T00480030  RH  088%=      5-min Rain = 0
KLE1 220522Z 04008KT 05/03 A3009 RMK A01 T00480031  RH  089%=      5-min Rain = 0
KLE1 220523Z 04009KT 05/03 A3009 RMK A01 T00480031  RH  089%=      5-min Rain = 0
KLE1 220524Z 04010KT 05/03 A3009 RMK A01 T00480031  RH  089%=      5-min Rain = 0
KLE1 220525Z 03010KT 05/03 A3009 RMK A01 T00480030  RH  088%=      5-min Rain = 0
KLE1 220526Z 03009KT 05/03 A3009 RMK A01 T00480030  RH  088%=      5-min Rain = 0
KLE1 220527Z 02008KT 05/03 A3009 RMK A01 T00480030  RH  088%=      5-min Rain = 0
KLE1 220528Z 02007KT 05/03 A301 RMK A01 T00480030  RH  089%=      5-min Rain = 0
KLE1 220529Z 02006KT 05/03 A301 RMK A01 T00480031  RH  089%=      5-min Rain = 0
KLE1 220530Z 02007KT 05/03 A301 RMK A01 T00470031  RH  090%=      5-min Rain = 0
KLE1 220531Z 02006KT 05/03 A301 RMK A01 T00470031  RH  090%=      5-min Rain = 0
KLE1 220532Z 03008KT 05/03 A301 RMK A01 T00470031  RH  089%=      5-min Rain = 0
KLE1 220533Z 03007KT 05/03 A301 RMK A01 T00470031  RH  089%=      5-min Rain = 0
KLE1 220534Z 02006KT 05/03 A301 RMK A01 T00470030  RH  089%=      5-min Rain = 0
KLE1 220535Z 02008KT 05/03 A301 RMK A01 T00470030  RH  089%=      5-min Rain = 0
KLE1 220536Z 02009KT 05/03 A301 RMK A01 T00470030  RH  088%=      5-min Rain = 0
KLE1 220537Z 01008KT 05/03 A301 RMK A01 T00470028  RH  088%=      5-min Rain = 0
KLE1 220538Z 01007KT 05/03 A301 RMK A01 T00470029  RH  088%=      5-min Rain = 0
KLE1 220539Z 01006KT 05/03 A3011 RMK A01 T00470029  RH  088%=      5-min Rain = 0
KLE1 220540Z 02006KT 05/03 A3011 RMK A01 T00470030  RH  089%=      5-min Rain = 0
KLE1 220541Z 02006KT 05/03 A3011 RMK A01 T00470031  RH  089%=      5-min Rain = 0
KLE1 220542Z 02006KT 05/03 A3011 RMK A01 T00470030  RH  089%=      5-min Rain = 0
KLE1 220543Z 02005KT 05/03 A3011 RMK A01 T00470030  RH  088%=      5-min Rain = 0
KLE1 220544Z 36006KT 05/03 A3012 RMK A01 T00480030  RH  088%=      5-min Rain = 0
KLE1 220545Z 35006KT 05/03 A3012 RMK A01 T00470029  RH  088%=      5-min Rain = 0
KLE1 220546Z 35007KT 05/03 A3012 RMK A01 T00470030  RH  088%=      5-min Rain = 0
KLE1 220547Z 34006KT 05/03 A3012 RMK A01 T00470030  RH  088%=      5-min Rain = 0
KLE1 220548Z 33008KT 05/03 A3013 RMK A01 T00480031  RH  089%=      5-min Rain = 0
KLE1 220549Z 33007KT 05/03 A3013 RMK A01 T00470030  RH  089%=      5-min Rain = 0
KLE1 220550Z 33007KT 05/03 A3014 RMK A01 T00470030  RH  089%=      5-min Rain = 0
KLE1 220551Z 32008KT 05/03 A3014 RMK A01 T00470031  RH  089%=      5-min Rain = 0
KLE1 220552Z 32007KT 05/03 A3015 RMK A01 T00470030  RH  089%=      5-min Rain = 0
KLE1 220553Z 31006KT 05/03 A3015 RMK A01 T00470030  RH  089%=      5-min Rain = 0
KLE1 220554Z 31007KT 05/03 A3015 RMK A01 T00470031  RH  089%=      5-min Rain = 0
KLE1 220555Z 31006KT 05/03 A3015 RMK A01 T00470031  RH  089%=      5-min Rain = 0
KLE1 220556Z 31006KT 05/03 A3015 RMK A01 T00470032  RH  090%=      5-min Rain = 0
KLE1 220557Z 30007KT 05/03 A3016 RMK A01 T00470033  RH  090%=      5-min Rain = 0
KLE1 220558Z 30007KT 05/03 A3016 RMK A01 T00470032  RH  090%=      5-min Rain = 0
KLE1 220559Z 30008KT 05/03 A3017 RMK A01 T00470031  RH  090%=      5-min Rain = 0

Page generated in 0.0814 seconds.